<?xml version="1.0" encoding="UTF-8" standalone="no" ?>
<gpx xmlns="http://www.topografix.com/GPX/1/1" xmlns:xsi="http://www.w3.org/2001/XMLSchema-instance" xsi:schemaLocation="http://www.topografix.com/GPX/1/1 http://www.topografix.com/GPX/1/1/gpx.xsd" version="1.1" creator="VisuGPX - https://www.visugpx.com">
  <metadata>
    <name>Les 4 fils Aymon</name>
    <desc><![CDATA[Monthermé ]]></desc>
  </metadata>
  <wpt lat="49.86075" lon="4.7401">
    <ele>192.4</ele>
    <name><![CDATA[Arbre]]></name>
  </wpt>
  <wpt lat="49.85959" lon="4.74058">
    <ele>211.4</ele>
    <name><![CDATA[Patrimoine Mondial]]></name>
  </wpt>
  <wpt lat="49.86003" lon="4.7409">
    <ele>204</ele>
    <name><![CDATA[Panorama]]></name>
  </wpt>
  <wpt lat="49.86131" lon="4.74213">
    <ele>241.3</ele>
    <name><![CDATA[Panorama]]></name>
  </wpt>
  <wpt lat="49.86253" lon="4.74277">
    <ele>264.1</ele>
    <name><![CDATA[Panorama]]></name>
  </wpt>
  <wpt lat="49.86432" lon="4.74398">
    <ele>269.8</ele>
    <name><![CDATA[null]]></name>
  </wpt>
  <wpt lat="49.86522" lon="4.74514">
    <ele>263.9</ele>
    <name><![CDATA[Arbre]]></name>
  </wpt>
  <wpt lat="49.867" lon="4.7475">
    <ele>295.6</ele>
    <name><![CDATA[Arbre]]></name>
  </wpt>
  <wpt lat="49.86729" lon="4.74782">
    <ele>297.2</ele>
    <name><![CDATA[Arbre]]></name>
  </wpt>
  <wpt lat="49.87022" lon="4.75303">
    <ele>351.3</ele>
    <name><![CDATA[Carrefour]]></name>
  </wpt>
  <wpt lat="49.86953" lon="4.75332">
    <ele>350.7</ele>
    <name><![CDATA[Carrefour]]></name>
  </wpt>
  <wpt lat="49.87114" lon="4.75541">
    <ele>357.3</ele>
    <name><![CDATA[Carrefour]]></name>
  </wpt>
  <wpt lat="49.87446" lon="4.75994">
    <ele>389.2</ele>
    <name><![CDATA[Carrefour]]></name>
  </wpt>
  <wpt lat="49.8767" lon="4.75533">
    <ele>316.5</ele>
    <name><![CDATA[Panorama]]></name>
  </wpt>
  <wpt lat="49.87444" lon="4.75197">
    <ele>291.2</ele>
    <name><![CDATA[Arbre]]></name>
  </wpt>
  <wpt lat="49.87432" lon="4.75056">
    <ele>272</ele>
    <name><![CDATA[Arbre]]></name>
  </wpt>
  <wpt lat="49.8746" lon="4.74585">
    <ele>187.2</ele>
    <name><![CDATA[Carrefour]]></name>
  </wpt>
  <wpt lat="49.87319" lon="4.74523">
    <ele>186.1</ele>
    <name><![CDATA[Carrefour]]></name>
  </wpt>
  <wpt lat="49.87158" lon="4.74583">
    <ele>207.9</ele>
    <name><![CDATA[Carrefour]]></name>
  </wpt>
  <wpt lat="49.8656" lon="4.74546">
    <ele>265.7</ele>
    <name><![CDATA[Carrefour]]></name>
  </wpt>
  <wpt lat="49.86575" lon="4.74455">
    <ele>243.4</ele>
    <name><![CDATA[Panorama]]></name>
  </wpt>
  <trk>
    <name><![CDATA[Les 4 fils Aymon]]></name>
    <desc><![CDATA[Château-Regnault]]></desc>
    <extensions>
      <line xmlns="http://www.topografix.com/GPX/gpx_style/0/2">
        <color>0000FF</color>
        <width>4</width>
      </line>
    </extensions>
    <trkseg>
      <trkpt lat="49.86056" lon="4.73948">
        <ele>186.636</ele>
        <time>2021-02-21T10:59:23Z</time>
      </trkpt>
      <trkpt lat="49.8606" lon="4.73954">
        <ele>184.617</ele>
        <time>2021-02-21T10:59:51Z</time>
      </trkpt>
      <trkpt lat="49.86063" lon="4.73959">
        <ele>183.818</ele>
        <time>2021-02-21T10:59:55Z</time>
      </trkpt>
      <trkpt lat="49.86068" lon="4.73962">
        <ele>183.308</ele>
        <time>2021-02-21T10:59:59Z</time>
      </trkpt>
      <trkpt lat="49.86073" lon="4.7396">
        <ele>182.639</ele>
        <time>2021-02-21T11:00:04Z</time>
      </trkpt>
      <trkpt lat="49.86078" lon="4.73962">
        <ele>182.279</ele>
        <time>2021-02-21T11:00:09Z</time>
      </trkpt>
      <trkpt lat="49.86078" lon="4.7397">
        <ele>181.225</ele>
        <time>2021-02-21T11:00:19Z</time>
      </trkpt>
      <trkpt lat="49.86075" lon="4.73978">
        <ele>180.272</ele>
        <time>2021-02-21T11:00:24Z</time>
      </trkpt>
      <trkpt lat="49.86072" lon="4.73984">
        <ele>179.65</ele>
        <time>2021-02-21T11:00:29Z</time>
      </trkpt>
      <trkpt lat="49.86068" lon="4.7399">
        <ele>179.238</ele>
        <time>2021-02-21T11:00:33Z</time>
      </trkpt>
      <trkpt lat="49.86065" lon="4.73996">
        <ele>179.099</ele>
        <time>2021-02-21T11:00:36Z</time>
      </trkpt>
      <trkpt lat="49.86062" lon="4.74001">
        <ele>178.972</ele>
        <time>2021-02-21T11:00:40Z</time>
      </trkpt>
      <trkpt lat="49.86057" lon="4.74006">
        <ele>179.645</ele>
        <time>2021-02-21T11:00:45Z</time>
      </trkpt>
      <trkpt lat="49.86061" lon="4.74009">
        <ele>179.647</ele>
        <time>2021-02-21T11:00:57Z</time>
      </trkpt>
      <trkpt lat="49.86066" lon="4.74008">
        <ele>179.611</ele>
        <time>2021-02-21T11:01:04Z</time>
      </trkpt>
      <trkpt lat="49.86071" lon="4.74007">
        <ele>180.008</ele>
        <time>2021-02-21T11:01:11Z</time>
      </trkpt>
      <trkpt lat="49.86075" lon="4.7401">
        <ele>183.06</ele>
        <time>2021-02-21T11:01:21Z</time>
      </trkpt>
      <trkpt lat="49.86078" lon="4.74015">
        <ele>185.25</ele>
        <time>2021-02-21T11:01:44Z</time>
      </trkpt>
      <trkpt lat="49.86078" lon="4.74023">
        <ele>187.716</ele>
        <time>2021-02-21T11:01:53Z</time>
      </trkpt>
      <trkpt lat="49.86078" lon="4.7403">
        <ele>190.073</ele>
        <time>2021-02-21T11:02:01Z</time>
      </trkpt>
      <trkpt lat="49.86078" lon="4.74038">
        <ele>191.831</ele>
        <time>2021-02-21T11:02:08Z</time>
      </trkpt>
      <trkpt lat="49.86077" lon="4.74045">
        <ele>193.769</ele>
        <time>2021-02-21T11:02:17Z</time>
      </trkpt>
      <trkpt lat="49.86077" lon="4.74052">
        <ele>194.83</ele>
        <time>2021-02-21T11:02:26Z</time>
      </trkpt>
      <trkpt lat="49.86076" lon="4.74059">
        <ele>195.963</ele>
        <time>2021-02-21T11:02:31Z</time>
      </trkpt>
      <trkpt lat="49.86075" lon="4.74066">
        <ele>196.931</ele>
        <time>2021-02-21T11:02:38Z</time>
      </trkpt>
      <trkpt lat="49.86075" lon="4.74074">
        <ele>197.961</ele>
        <time>2021-02-21T11:02:44Z</time>
      </trkpt>
      <trkpt lat="49.86071" lon="4.74081">
        <ele>198.907</ele>
        <time>2021-02-21T11:02:49Z</time>
      </trkpt>
      <trkpt lat="49.86066" lon="4.74084">
        <ele>199.508</ele>
        <time>2021-02-21T11:02:53Z</time>
      </trkpt>
      <trkpt lat="49.86062" lon="4.74085">
        <ele>199.939</ele>
        <time>2021-02-21T11:02:56Z</time>
      </trkpt>
      <trkpt lat="49.86057" lon="4.74084">
        <ele>200.559</ele>
        <time>2021-02-21T11:02:59Z</time>
      </trkpt>
      <trkpt lat="49.86051" lon="4.74081">
        <ele>201.325</ele>
        <time>2021-02-21T11:03:03Z</time>
      </trkpt>
      <trkpt lat="49.86046" lon="4.74079">
        <ele>202.232</ele>
        <time>2021-02-21T11:03:07Z</time>
      </trkpt>
      <trkpt lat="49.86041" lon="4.7408">
        <ele>203.12</ele>
        <time>2021-02-21T11:03:11Z</time>
      </trkpt>
      <trkpt lat="49.86036" lon="4.74079">
        <ele>203.778</ele>
        <time>2021-02-21T11:03:15Z</time>
      </trkpt>
      <trkpt lat="49.86031" lon="4.74074">
        <ele>204.059</ele>
        <time>2021-02-21T11:03:20Z</time>
      </trkpt>
      <trkpt lat="49.86026" lon="4.74072">
        <ele>204.642</ele>
        <time>2021-02-21T11:03:23Z</time>
      </trkpt>
      <trkpt lat="49.86021" lon="4.74071">
        <ele>204.697</ele>
        <time>2021-02-21T11:03:27Z</time>
      </trkpt>
      <trkpt lat="49.86015" lon="4.74068">
        <ele>205.423</ele>
        <time>2021-02-21T11:03:33Z</time>
      </trkpt>
      <trkpt lat="49.86009" lon="4.74066">
        <ele>205.525</ele>
        <time>2021-02-21T11:03:37Z</time>
      </trkpt>
      <trkpt lat="49.86004" lon="4.74065">
        <ele>206.308</ele>
        <time>2021-02-21T11:03:40Z</time>
      </trkpt>
      <trkpt lat="49.86" lon="4.74063">
        <ele>206.855</ele>
        <time>2021-02-21T11:03:45Z</time>
      </trkpt>
      <trkpt lat="49.85996" lon="4.74059">
        <ele>206.725</ele>
        <time>2021-02-21T11:03:49Z</time>
      </trkpt>
      <trkpt lat="49.85992" lon="4.74056">
        <ele>206.621</ele>
        <time>2021-02-21T11:03:53Z</time>
      </trkpt>
      <trkpt lat="49.85987" lon="4.74053">
        <ele>206.638</ele>
        <time>2021-02-21T11:03:56Z</time>
      </trkpt>
      <trkpt lat="49.85983" lon="4.74051">
        <ele>206.676</ele>
        <time>2021-02-21T11:04:00Z</time>
      </trkpt>
      <trkpt lat="49.85978" lon="4.74055">
        <ele>205.854</ele>
        <time>2021-02-21T11:04:07Z</time>
      </trkpt>
      <trkpt lat="49.85975" lon="4.74058">
        <ele>204.565</ele>
        <time>2021-02-21T11:04:13Z</time>
      </trkpt>
      <trkpt lat="49.85972" lon="4.74065">
        <ele>203.768</ele>
        <time>2021-02-21T11:04:22Z</time>
      </trkpt>
      <trkpt lat="49.85975" lon="4.74072">
        <ele>203.242</ele>
        <time>2021-02-21T11:04:33Z</time>
      </trkpt>
      <trkpt lat="49.85976" lon="4.74079">
        <ele>203.322</ele>
        <time>2021-02-21T11:04:40Z</time>
      </trkpt>
      <trkpt lat="49.85977" lon="4.74087">
        <ele>204.214</ele>
        <time>2021-02-21T11:04:48Z</time>
      </trkpt>
      <trkpt lat="49.85972" lon="4.74086">
        <ele>205.508</ele>
        <time>2021-02-21T11:04:55Z</time>
      </trkpt>
      <trkpt lat="49.85968" lon="4.74082">
        <ele>207.92</ele>
        <time>2021-02-21T11:05:01Z</time>
      </trkpt>
      <trkpt lat="49.85965" lon="4.74076">
        <ele>210.18</ele>
        <time>2021-02-21T11:05:05Z</time>
      </trkpt>
      <trkpt lat="49.85963" lon="4.7407">
        <ele>212.216</ele>
        <time>2021-02-21T11:05:10Z</time>
      </trkpt>
      <trkpt lat="49.85959" lon="4.74066">
        <ele>213.973</ele>
        <time>2021-02-21T11:05:16Z</time>
      </trkpt>
      <trkpt lat="49.85959" lon="4.74059">
        <ele>215.311</ele>
        <time>2021-02-21T11:05:50Z</time>
      </trkpt>
      <trkpt lat="49.85963" lon="4.74056">
        <ele>216.559</ele>
        <time>2021-02-21T11:06:55Z</time>
      </trkpt>
      <trkpt lat="49.85968" lon="4.74057">
        <ele>216.84</ele>
        <time>2021-02-21T11:07:01Z</time>
      </trkpt>
      <trkpt lat="49.85967" lon="4.74063">
        <ele>218.613</ele>
        <time>2021-02-21T11:08:00Z</time>
      </trkpt>
      <trkpt lat="49.85963" lon="4.74068">
        <ele>218.929</ele>
        <time>2021-02-21T11:08:07Z</time>
      </trkpt>
      <trkpt lat="49.85966" lon="4.74077">
        <ele>219.1</ele>
        <time>2021-02-21T11:08:34Z</time>
      </trkpt>
      <trkpt lat="49.85969" lon="4.74083">
        <ele>218.82</ele>
        <time>2021-02-21T11:08:37Z</time>
      </trkpt>
      <trkpt lat="49.85974" lon="4.74088">
        <ele>218.208</ele>
        <time>2021-02-21T11:08:42Z</time>
      </trkpt>
      <trkpt lat="49.85978" lon="4.74091">
        <ele>217.538</ele>
        <time>2021-02-21T11:08:47Z</time>
      </trkpt>
      <trkpt lat="49.85975" lon="4.74086">
        <ele>218.718</ele>
        <time>2021-02-21T11:09:23Z</time>
      </trkpt>
      <trkpt lat="49.85979" lon="4.74085">
        <ele>219.044</ele>
        <time>2021-02-21T11:09:33Z</time>
      </trkpt>
      <trkpt lat="49.85981" lon="4.74078">
        <ele>218.861</ele>
        <time>2021-02-21T11:09:40Z</time>
      </trkpt>
      <trkpt lat="49.85979" lon="4.74071">
        <ele>217.989</ele>
        <time>2021-02-21T11:09:53Z</time>
      </trkpt>
      <trkpt lat="49.85978" lon="4.74064">
        <ele>217.787</ele>
        <time>2021-02-21T11:09:58Z</time>
      </trkpt>
      <trkpt lat="49.85982" lon="4.74058">
        <ele>216.868</ele>
        <time>2021-02-21T11:10:05Z</time>
      </trkpt>
      <trkpt lat="49.85986" lon="4.74054">
        <ele>215.121</ele>
        <time>2021-02-21T11:10:15Z</time>
      </trkpt>
      <trkpt lat="49.85991" lon="4.74053">
        <ele>213.744</ele>
        <time>2021-02-21T11:10:20Z</time>
      </trkpt>
      <trkpt lat="49.85993" lon="4.7406">
        <ele>212.805</ele>
        <time>2021-02-21T11:10:25Z</time>
      </trkpt>
      <trkpt lat="49.85993" lon="4.74068">
        <ele>211.115</ele>
        <time>2021-02-21T11:10:30Z</time>
      </trkpt>
      <trkpt lat="49.85996" lon="4.74074">
        <ele>209.708</ele>
        <time>2021-02-21T11:10:35Z</time>
      </trkpt>
      <trkpt lat="49.85997" lon="4.74081">
        <ele>208.08</ele>
        <time>2021-02-21T11:10:39Z</time>
      </trkpt>
      <trkpt lat="49.85999" lon="4.74087">
        <ele>206.68</ele>
        <time>2021-02-21T11:10:44Z</time>
      </trkpt>
      <trkpt lat="49.86003" lon="4.74091">
        <ele>207.416</ele>
        <time>2021-02-21T11:11:33Z</time>
      </trkpt>
      <trkpt lat="49.86007" lon="4.74089">
        <ele>207.133</ele>
        <time>2021-02-21T11:11:42Z</time>
      </trkpt>
      <trkpt lat="49.86013" lon="4.74091">
        <ele>207.391</ele>
        <time>2021-02-21T11:11:49Z</time>
      </trkpt>
      <trkpt lat="49.86017" lon="4.74094">
        <ele>207.439</ele>
        <time>2021-02-21T11:11:54Z</time>
      </trkpt>
      <trkpt lat="49.86022" lon="4.74094">
        <ele>207.52</ele>
        <time>2021-02-21T11:11:58Z</time>
      </trkpt>
      <trkpt lat="49.86028" lon="4.74094">
        <ele>207.513</ele>
        <time>2021-02-21T11:12:02Z</time>
      </trkpt>
      <trkpt lat="49.86033" lon="4.74092">
        <ele>207.133</ele>
        <time>2021-02-21T11:12:06Z</time>
      </trkpt>
      <trkpt lat="49.86039" lon="4.74089">
        <ele>206.523</ele>
        <time>2021-02-21T11:12:10Z</time>
      </trkpt>
      <trkpt lat="49.86044" lon="4.74089">
        <ele>206.515</ele>
        <time>2021-02-21T11:12:14Z</time>
      </trkpt>
      <trkpt lat="49.8605" lon="4.74089">
        <ele>206.108</ele>
        <time>2021-02-21T11:12:19Z</time>
      </trkpt>
      <trkpt lat="49.86055" lon="4.74089">
        <ele>206.369</ele>
        <time>2021-02-21T11:12:32Z</time>
      </trkpt>
      <trkpt lat="49.8606" lon="4.74091">
        <ele>206.829</ele>
        <time>2021-02-21T11:12:37Z</time>
      </trkpt>
      <trkpt lat="49.86066" lon="4.74092">
        <ele>207.165</ele>
        <time>2021-02-21T11:12:42Z</time>
      </trkpt>
      <trkpt lat="49.8607" lon="4.7409">
        <ele>207.762</ele>
        <time>2021-02-21T11:12:47Z</time>
      </trkpt>
      <trkpt lat="49.86075" lon="4.74089">
        <ele>208.04</ele>
        <time>2021-02-21T11:12:52Z</time>
      </trkpt>
      <trkpt lat="49.86079" lon="4.74086">
        <ele>209.098</ele>
        <time>2021-02-21T11:13:44Z</time>
      </trkpt>
      <trkpt lat="49.86081" lon="4.74078">
        <ele>209.229</ele>
        <time>2021-02-21T11:13:50Z</time>
      </trkpt>
      <trkpt lat="49.86085" lon="4.74072">
        <ele>207.742</ele>
        <time>2021-02-21T11:14:58Z</time>
      </trkpt>
      <trkpt lat="49.86089" lon="4.7407">
        <ele>206.413</ele>
        <time>2021-02-21T11:15:06Z</time>
      </trkpt>
      <trkpt lat="49.86091" lon="4.74077">
        <ele>206.843</ele>
        <time>2021-02-21T11:15:13Z</time>
      </trkpt>
      <trkpt lat="49.86092" lon="4.74085">
        <ele>207.107</ele>
        <time>2021-02-21T11:15:21Z</time>
      </trkpt>
      <trkpt lat="49.86093" lon="4.74092">
        <ele>208.108</ele>
        <time>2021-02-21T11:15:28Z</time>
      </trkpt>
      <trkpt lat="49.86097" lon="4.74096">
        <ele>209.187</ele>
        <time>2021-02-21T11:15:35Z</time>
      </trkpt>
      <trkpt lat="49.86097" lon="4.74104">
        <ele>211.377</ele>
        <time>2021-02-21T11:15:49Z</time>
      </trkpt>
      <trkpt lat="49.86099" lon="4.7411">
        <ele>213.433</ele>
        <time>2021-02-21T11:16:00Z</time>
      </trkpt>
      <trkpt lat="49.86098" lon="4.74117">
        <ele>215.17</ele>
        <time>2021-02-21T11:16:07Z</time>
      </trkpt>
      <trkpt lat="49.86098" lon="4.74125">
        <ele>216.178</ele>
        <time>2021-02-21T11:16:13Z</time>
      </trkpt>
      <trkpt lat="49.86099" lon="4.74131">
        <ele>216.756</ele>
        <time>2021-02-21T11:16:21Z</time>
      </trkpt>
      <trkpt lat="49.86103" lon="4.74137">
        <ele>217.997</ele>
        <time>2021-02-21T11:16:30Z</time>
      </trkpt>
      <trkpt lat="49.86103" lon="4.74145">
        <ele>219.89</ele>
        <time>2021-02-21T11:17:11Z</time>
      </trkpt>
      <trkpt lat="49.86106" lon="4.74151">
        <ele>221.755</ele>
        <time>2021-02-21T11:17:20Z</time>
      </trkpt>
      <trkpt lat="49.86108" lon="4.74159">
        <ele>222.907</ele>
        <time>2021-02-21T11:17:34Z</time>
      </trkpt>
      <trkpt lat="49.86108" lon="4.74166">
        <ele>226.017</ele>
        <time>2021-02-21T11:18:05Z</time>
      </trkpt>
      <trkpt lat="49.86111" lon="4.74173">
        <ele>227.908</ele>
        <time>2021-02-21T11:18:23Z</time>
      </trkpt>
      <trkpt lat="49.86113" lon="4.7418">
        <ele>229.821</ele>
        <time>2021-02-21T11:18:32Z</time>
      </trkpt>
      <trkpt lat="49.86115" lon="4.74186">
        <ele>230.571</ele>
        <time>2021-02-21T11:18:40Z</time>
      </trkpt>
      <trkpt lat="49.86115" lon="4.74194">
        <ele>231.717</ele>
        <time>2021-02-21T11:18:52Z</time>
      </trkpt>
      <trkpt lat="49.86114" lon="4.74201">
        <ele>232.814</ele>
        <time>2021-02-21T11:19:00Z</time>
      </trkpt>
      <trkpt lat="49.86118" lon="4.74207">
        <ele>235.552</ele>
        <time>2021-02-21T11:19:21Z</time>
      </trkpt>
      <trkpt lat="49.86121" lon="4.74213">
        <ele>238.79</ele>
        <time>2021-02-21T11:19:33Z</time>
      </trkpt>
      <trkpt lat="49.86124" lon="4.74218">
        <ele>241.461</ele>
        <time>2021-02-21T11:19:48Z</time>
      </trkpt>
      <trkpt lat="49.86127" lon="4.74224">
        <ele>243.884</ele>
        <time>2021-02-21T11:19:58Z</time>
      </trkpt>
      <trkpt lat="49.86131" lon="4.74227">
        <ele>246.556</ele>
        <time>2021-02-21T11:20:05Z</time>
      </trkpt>
      <trkpt lat="49.8613" lon="4.7422">
        <ele>248.959</ele>
        <time>2021-02-21T11:20:20Z</time>
      </trkpt>
      <trkpt lat="49.86131" lon="4.74214">
        <ele>250.714</ele>
        <time>2021-02-21T11:20:26Z</time>
      </trkpt>
      <trkpt lat="49.86133" lon="4.7422">
        <ele>250.208</ele>
        <time>2021-02-21T11:22:55Z</time>
      </trkpt>
      <trkpt lat="49.86133" lon="4.74229">
        <ele>249.961</ele>
        <time>2021-02-21T11:23:00Z</time>
      </trkpt>
      <trkpt lat="49.86137" lon="4.74234">
        <ele>248.931</ele>
        <time>2021-02-21T11:23:06Z</time>
      </trkpt>
      <trkpt lat="49.86143" lon="4.74234">
        <ele>248.347</ele>
        <time>2021-02-21T11:23:12Z</time>
      </trkpt>
      <trkpt lat="49.86147" lon="4.74234">
        <ele>247.974</ele>
        <time>2021-02-21T11:23:17Z</time>
      </trkpt>
      <trkpt lat="49.86152" lon="4.74236">
        <ele>248.132</ele>
        <time>2021-02-21T11:23:23Z</time>
      </trkpt>
      <trkpt lat="49.86157" lon="4.74235">
        <ele>247.89</ele>
        <time>2021-02-21T11:23:27Z</time>
      </trkpt>
      <trkpt lat="49.86162" lon="4.74238">
        <ele>248.051</ele>
        <time>2021-02-21T11:23:33Z</time>
      </trkpt>
      <trkpt lat="49.8616" lon="4.74245">
        <ele>246.944</ele>
        <time>2021-02-21T11:23:46Z</time>
      </trkpt>
      <trkpt lat="49.86161" lon="4.74238">
        <ele>245.939</ele>
        <time>2021-02-21T11:24:18Z</time>
      </trkpt>
      <trkpt lat="49.86166" lon="4.74238">
        <ele>246.101</ele>
        <time>2021-02-21T11:24:23Z</time>
      </trkpt>
      <trkpt lat="49.86171" lon="4.7424">
        <ele>245.821</ele>
        <time>2021-02-21T11:24:27Z</time>
      </trkpt>
      <trkpt lat="49.86177" lon="4.7424">
        <ele>245.208</ele>
        <time>2021-02-21T11:24:31Z</time>
      </trkpt>
      <trkpt lat="49.86181" lon="4.74238">
        <ele>244.939</ele>
        <time>2021-02-21T11:24:35Z</time>
      </trkpt>
      <trkpt lat="49.86186" lon="4.74237">
        <ele>245.169</ele>
        <time>2021-02-21T11:24:40Z</time>
      </trkpt>
      <trkpt lat="49.86191" lon="4.74239">
        <ele>245.695</ele>
        <time>2021-02-21T11:24:44Z</time>
      </trkpt>
      <trkpt lat="49.86196" lon="4.74238">
        <ele>245.932</ele>
        <time>2021-02-21T11:24:50Z</time>
      </trkpt>
      <trkpt lat="49.86201" lon="4.74236">
        <ele>245.78</ele>
        <time>2021-02-21T11:24:55Z</time>
      </trkpt>
      <trkpt lat="49.86206" lon="4.74238">
        <ele>246.078</ele>
        <time>2021-02-21T11:24:59Z</time>
      </trkpt>
      <trkpt lat="49.86212" lon="4.74238">
        <ele>246.689</ele>
        <time>2021-02-21T11:25:04Z</time>
      </trkpt>
      <trkpt lat="49.86217" lon="4.74237">
        <ele>247.792</ele>
        <time>2021-02-21T11:25:10Z</time>
      </trkpt>
      <trkpt lat="49.86221" lon="4.74241">
        <ele>250.028</ele>
        <time>2021-02-21T11:25:21Z</time>
      </trkpt>
      <trkpt lat="49.86224" lon="4.74247">
        <ele>251.489</ele>
        <time>2021-02-21T11:25:31Z</time>
      </trkpt>
      <trkpt lat="49.86228" lon="4.74251">
        <ele>253.017</ele>
        <time>2021-02-21T11:25:41Z</time>
      </trkpt>
      <trkpt lat="49.86232" lon="4.74255">
        <ele>254.808</ele>
        <time>2021-02-21T11:25:46Z</time>
      </trkpt>
      <trkpt lat="49.86236" lon="4.74261">
        <ele>256.348</ele>
        <time>2021-02-21T11:25:54Z</time>
      </trkpt>
      <trkpt lat="49.8624" lon="4.74264">
        <ele>257.228</ele>
        <time>2021-02-21T11:26:06Z</time>
      </trkpt>
      <trkpt lat="49.86243" lon="4.7427">
        <ele>259.734</ele>
        <time>2021-02-21T11:26:34Z</time>
      </trkpt>
      <trkpt lat="49.86249" lon="4.74273">
        <ele>262.491</ele>
        <time>2021-02-21T11:26:44Z</time>
      </trkpt>
      <trkpt lat="49.86253" lon="4.74278">
        <ele>265.649</ele>
        <time>2021-02-21T11:27:50Z</time>
      </trkpt>
      <trkpt lat="49.8625" lon="4.74272">
        <ele>267.527</ele>
        <time>2021-02-21T11:31:39Z</time>
      </trkpt>
      <trkpt lat="49.86246" lon="4.74273">
        <ele>267.938</ele>
        <time>2021-02-21T11:31:43Z</time>
      </trkpt>
      <trkpt lat="49.86242" lon="4.74266">
        <ele>267.711</ele>
        <time>2021-02-21T11:31:55Z</time>
      </trkpt>
      <trkpt lat="49.86238" lon="4.74262">
        <ele>266.491</ele>
        <time>2021-02-21T11:32:10Z</time>
      </trkpt>
      <trkpt lat="49.86233" lon="4.74259">
        <ele>265.281</ele>
        <time>2021-02-21T11:32:23Z</time>
      </trkpt>
      <trkpt lat="49.86229" lon="4.74257">
        <ele>262.919</ele>
        <time>2021-02-21T11:32:33Z</time>
      </trkpt>
      <trkpt lat="49.86225" lon="4.74252">
        <ele>261.508</ele>
        <time>2021-02-21T11:32:40Z</time>
      </trkpt>
      <trkpt lat="49.86222" lon="4.74246">
        <ele>259.935</ele>
        <time>2021-02-21T11:32:47Z</time>
      </trkpt>
      <trkpt lat="49.86226" lon="4.74241">
        <ele>256.945</ele>
        <time>2021-02-21T11:33:08Z</time>
      </trkpt>
      <trkpt lat="49.8623" lon="4.74237">
        <ele>253.991</ele>
        <time>2021-02-21T11:33:42Z</time>
      </trkpt>
      <trkpt lat="49.86235" lon="4.74234">
        <ele>252.188</ele>
        <time>2021-02-21T11:33:46Z</time>
      </trkpt>
      <trkpt lat="49.8624" lon="4.74231">
        <ele>251.096</ele>
        <time>2021-02-21T11:33:51Z</time>
      </trkpt>
      <trkpt lat="49.86244" lon="4.74228">
        <ele>250.414</ele>
        <time>2021-02-21T11:33:55Z</time>
      </trkpt>
      <trkpt lat="49.8625" lon="4.74228">
        <ele>250.035</ele>
        <time>2021-02-21T11:34:00Z</time>
      </trkpt>
      <trkpt lat="49.86254" lon="4.74225">
        <ele>249.438</ele>
        <time>2021-02-21T11:34:04Z</time>
      </trkpt>
      <trkpt lat="49.86256" lon="4.74218">
        <ele>249.075</ele>
        <time>2021-02-21T11:34:10Z</time>
      </trkpt>
      <trkpt lat="49.86258" lon="4.74225">
        <ele>248.428</ele>
        <time>2021-02-21T11:35:00Z</time>
      </trkpt>
      <trkpt lat="49.8626" lon="4.74232">
        <ele>247.22</ele>
        <time>2021-02-21T11:35:08Z</time>
      </trkpt>
      <trkpt lat="49.86263" lon="4.74238">
        <ele>246.108</ele>
        <time>2021-02-21T11:35:13Z</time>
      </trkpt>
      <trkpt lat="49.86263" lon="4.74246">
        <ele>246.263</ele>
        <time>2021-02-21T11:35:20Z</time>
      </trkpt>
      <trkpt lat="49.86265" lon="4.74253">
        <ele>246.333</ele>
        <time>2021-02-21T11:35:25Z</time>
      </trkpt>
      <trkpt lat="49.86268" lon="4.7426">
        <ele>247.179</ele>
        <time>2021-02-21T11:35:30Z</time>
      </trkpt>
      <trkpt lat="49.86272" lon="4.74263">
        <ele>248.046</ele>
        <time>2021-02-21T11:35:36Z</time>
      </trkpt>
      <trkpt lat="49.86277" lon="4.74263">
        <ele>248.944</ele>
        <time>2021-02-21T11:35:40Z</time>
      </trkpt>
      <trkpt lat="49.86282" lon="4.74266">
        <ele>249.522</ele>
        <time>2021-02-21T11:35:45Z</time>
      </trkpt>
      <trkpt lat="49.86285" lon="4.74272">
        <ele>249.853</ele>
        <time>2021-02-21T11:35:50Z</time>
      </trkpt>
      <trkpt lat="49.86288" lon="4.74278">
        <ele>249.666</ele>
        <time>2021-02-21T11:36:19Z</time>
      </trkpt>
      <trkpt lat="49.86292" lon="4.74282">
        <ele>248.728</ele>
        <time>2021-02-21T11:36:37Z</time>
      </trkpt>
      <trkpt lat="49.86295" lon="4.74287">
        <ele>248.589</ele>
        <time>2021-02-21T11:36:44Z</time>
      </trkpt>
      <trkpt lat="49.86298" lon="4.74293">
        <ele>248.017</ele>
        <time>2021-02-21T11:36:49Z</time>
      </trkpt>
      <trkpt lat="49.863" lon="4.74299">
        <ele>247.308</ele>
        <time>2021-02-21T11:37:04Z</time>
      </trkpt>
      <trkpt lat="49.86305" lon="4.74303">
        <ele>247.318</ele>
        <time>2021-02-21T11:37:13Z</time>
      </trkpt>
      <trkpt lat="49.8631" lon="4.74304">
        <ele>247.318</ele>
        <time>2021-02-21T11:37:19Z</time>
      </trkpt>
      <trkpt lat="49.86314" lon="4.74305">
        <ele>246.934</ele>
        <time>2021-02-21T11:37:29Z</time>
      </trkpt>
      <trkpt lat="49.86315" lon="4.74312">
        <ele>246.791</ele>
        <time>2021-02-21T11:37:44Z</time>
      </trkpt>
      <trkpt lat="49.86319" lon="4.7432">
        <ele>246.279</ele>
        <time>2021-02-21T11:37:53Z</time>
      </trkpt>
      <trkpt lat="49.86324" lon="4.74322">
        <ele>247.147</ele>
        <time>2021-02-21T11:38:01Z</time>
      </trkpt>
      <trkpt lat="49.86327" lon="4.74327">
        <ele>248.478</ele>
        <time>2021-02-21T11:38:10Z</time>
      </trkpt>
      <trkpt lat="49.86331" lon="4.74331">
        <ele>249.241</ele>
        <time>2021-02-21T11:38:18Z</time>
      </trkpt>
      <trkpt lat="49.86335" lon="4.74333">
        <ele>250.186</ele>
        <time>2021-02-21T11:38:32Z</time>
      </trkpt>
      <trkpt lat="49.8634" lon="4.74335">
        <ele>251.46</ele>
        <time>2021-02-21T11:38:52Z</time>
      </trkpt>
      <trkpt lat="49.86345" lon="4.74335">
        <ele>252.626</ele>
        <time>2021-02-21T11:39:01Z</time>
      </trkpt>
      <trkpt lat="49.86349" lon="4.74333">
        <ele>256.108</ele>
        <time>2021-02-21T11:39:25Z</time>
      </trkpt>
      <trkpt lat="49.86354" lon="4.74334">
        <ele>259.054</ele>
        <time>2021-02-21T11:39:32Z</time>
      </trkpt>
      <trkpt lat="49.86358" lon="4.7434">
        <ele>261.194</ele>
        <time>2021-02-21T11:39:50Z</time>
      </trkpt>
      <trkpt lat="49.86362" lon="4.74345">
        <ele>261.68</ele>
        <time>2021-02-21T11:39:59Z</time>
      </trkpt>
      <trkpt lat="49.86364" lon="4.74351">
        <ele>261.957</ele>
        <time>2021-02-21T11:40:10Z</time>
      </trkpt>
      <trkpt lat="49.86369" lon="4.74354">
        <ele>262.165</ele>
        <time>2021-02-21T11:40:31Z</time>
      </trkpt>
      <trkpt lat="49.86373" lon="4.74359">
        <ele>262.623</ele>
        <time>2021-02-21T11:40:53Z</time>
      </trkpt>
      <trkpt lat="49.86377" lon="4.74364">
        <ele>264.114</ele>
        <time>2021-02-21T11:46:01Z</time>
      </trkpt>
      <trkpt lat="49.8638" lon="4.7437">
        <ele>263.827</ele>
        <time>2021-02-21T11:46:37Z</time>
      </trkpt>
      <trkpt lat="49.8638" lon="4.74377">
        <ele>262.892</ele>
        <time>2021-02-21T11:46:50Z</time>
      </trkpt>
      <trkpt lat="49.86384" lon="4.74383">
        <ele>261.473</ele>
        <time>2021-02-21T11:47:05Z</time>
      </trkpt>
      <trkpt lat="49.86387" lon="4.74389">
        <ele>259.82</ele>
        <time>2021-02-21T11:47:11Z</time>
      </trkpt>
      <trkpt lat="49.86383" lon="4.74395">
        <ele>258.808</ele>
        <time>2021-02-21T11:48:23Z</time>
      </trkpt>
      <trkpt lat="49.86389" lon="4.74398">
        <ele>259.455</ele>
        <time>2021-02-21T11:48:59Z</time>
      </trkpt>
      <trkpt lat="49.86392" lon="4.74404">
        <ele>260.295</ele>
        <time>2021-02-21T11:49:06Z</time>
      </trkpt>
      <trkpt lat="49.86397" lon="4.74405">
        <ele>262.321</ele>
        <time>2021-02-21T11:49:14Z</time>
      </trkpt>
      <trkpt lat="49.86402" lon="4.74404">
        <ele>263.568</ele>
        <time>2021-02-21T11:49:21Z</time>
      </trkpt>
      <trkpt lat="49.86407" lon="4.74406">
        <ele>265.036</ele>
        <time>2021-02-21T11:49:45Z</time>
      </trkpt>
      <trkpt lat="49.8641" lon="4.74412">
        <ele>267.114</ele>
        <time>2021-02-21T11:49:56Z</time>
      </trkpt>
      <trkpt lat="49.86414" lon="4.74416">
        <ele>269.295</ele>
        <time>2021-02-21T11:50:36Z</time>
      </trkpt>
      <trkpt lat="49.86416" lon="4.7441">
        <ele>271.278</ele>
        <time>2021-02-21T11:51:06Z</time>
      </trkpt>
      <trkpt lat="49.8642" lon="4.74406">
        <ele>273.291</ele>
        <time>2021-02-21T11:51:32Z</time>
      </trkpt>
      <trkpt lat="49.86423" lon="4.744">
        <ele>275.681</ele>
        <time>2021-02-21T11:51:57Z</time>
      </trkpt>
      <trkpt lat="49.86427" lon="4.74397">
        <ele>277.819</ele>
        <time>2021-02-21T11:52:27Z</time>
      </trkpt>
      <trkpt lat="49.86432" lon="4.74399">
        <ele>279.108</ele>
        <time>2021-02-21T11:52:33Z</time>
      </trkpt>
      <trkpt lat="49.86428" lon="4.74396">
        <ele>282.755</ele>
        <time>2021-02-21T11:55:46Z</time>
      </trkpt>
      <trkpt lat="49.86423" lon="4.74397">
        <ele>283.345</ele>
        <time>2021-02-21T11:55:57Z</time>
      </trkpt>
      <trkpt lat="49.86418" lon="4.74401">
        <ele>281.211</ele>
        <time>2021-02-21T11:56:15Z</time>
      </trkpt>
      <trkpt lat="49.86415" lon="4.74407">
        <ele>278.868</ele>
        <time>2021-02-21T11:56:24Z</time>
      </trkpt>
      <trkpt lat="49.86413" lon="4.74414">
        <ele>275.716</ele>
        <time>2021-02-21T11:56:33Z</time>
      </trkpt>
      <trkpt lat="49.8641" lon="4.7442">
        <ele>273.544</ele>
        <time>2021-02-21T11:56:37Z</time>
      </trkpt>
      <trkpt lat="49.86406" lon="4.74425">
        <ele>271.885</ele>
        <time>2021-02-21T11:56:43Z</time>
      </trkpt>
      <trkpt lat="49.86411" lon="4.74423">
        <ele>271.698</ele>
        <time>2021-02-21T11:57:22Z</time>
      </trkpt>
      <trkpt lat="49.86414" lon="4.74418">
        <ele>271.579</ele>
        <time>2021-02-21T11:57:26Z</time>
      </trkpt>
      <trkpt lat="49.8642" lon="4.74419">
        <ele>271.805</ele>
        <time>2021-02-21T11:57:33Z</time>
      </trkpt>
      <trkpt lat="49.86424" lon="4.74418">
        <ele>272.425</ele>
        <time>2021-02-21T11:57:39Z</time>
      </trkpt>
      <trkpt lat="49.86429" lon="4.74422">
        <ele>272.808</ele>
        <time>2021-02-21T11:57:45Z</time>
      </trkpt>
      <trkpt lat="49.86433" lon="4.74427">
        <ele>272.653</ele>
        <time>2021-02-21T11:57:50Z</time>
      </trkpt>
      <trkpt lat="49.86437" lon="4.74432">
        <ele>272.583</ele>
        <time>2021-02-21T11:57:54Z</time>
      </trkpt>
      <trkpt lat="49.86441" lon="4.74431">
        <ele>272.029</ele>
        <time>2021-02-21T11:57:59Z</time>
      </trkpt>
      <trkpt lat="49.86446" lon="4.74436">
        <ele>271.336</ele>
        <time>2021-02-21T11:58:06Z</time>
      </trkpt>
      <trkpt lat="49.86451" lon="4.74437">
        <ele>270.564</ele>
        <time>2021-02-21T11:58:10Z</time>
      </trkpt>
      <trkpt lat="49.86456" lon="4.74439">
        <ele>269.262</ele>
        <time>2021-02-21T11:58:14Z</time>
      </trkpt>
      <trkpt lat="49.8646" lon="4.74442">
        <ele>268.083</ele>
        <time>2021-02-21T11:58:17Z</time>
      </trkpt>
      <trkpt lat="49.86464" lon="4.74445">
        <ele>266.956</ele>
        <time>2021-02-21T11:58:21Z</time>
      </trkpt>
      <trkpt lat="49.86467" lon="4.74452">
        <ele>265.875</ele>
        <time>2021-02-21T11:58:27Z</time>
      </trkpt>
      <trkpt lat="49.86471" lon="4.74456">
        <ele>265.628</ele>
        <time>2021-02-21T11:58:31Z</time>
      </trkpt>
      <trkpt lat="49.86474" lon="4.74461">
        <ele>265.52</ele>
        <time>2021-02-21T11:58:37Z</time>
      </trkpt>
      <trkpt lat="49.8647" lon="4.74458">
        <ele>266.208</ele>
        <time>2021-02-21T11:58:44Z</time>
      </trkpt>
      <trkpt lat="49.86466" lon="4.74452">
        <ele>266.283</ele>
        <time>2021-02-21T11:58:49Z</time>
      </trkpt>
      <trkpt lat="49.86466" lon="4.74445">
        <ele>266.283</ele>
        <time>2021-02-21T11:58:53Z</time>
      </trkpt>
      <trkpt lat="49.86472" lon="4.74444">
        <ele>265.859</ele>
        <time>2021-02-21T11:58:57Z</time>
      </trkpt>
      <trkpt lat="49.86477" lon="4.74444">
        <ele>264.846</ele>
        <time>2021-02-21T11:59:03Z</time>
      </trkpt>
      <trkpt lat="49.86481" lon="4.74448">
        <ele>263.434</ele>
        <time>2021-02-21T11:59:07Z</time>
      </trkpt>
      <trkpt lat="49.86485" lon="4.74453">
        <ele>262.942</ele>
        <time>2021-02-21T11:59:11Z</time>
      </trkpt>
      <trkpt lat="49.86487" lon="4.7446">
        <ele>262.213</ele>
        <time>2021-02-21T11:59:16Z</time>
      </trkpt>
      <trkpt lat="49.86489" lon="4.74467">
        <ele>261.876</ele>
        <time>2021-02-21T11:59:21Z</time>
      </trkpt>
      <trkpt lat="49.86492" lon="4.74473">
        <ele>261.674</ele>
        <time>2021-02-21T11:59:25Z</time>
      </trkpt>
      <trkpt lat="49.86496" lon="4.74479">
        <ele>261.956</ele>
        <time>2021-02-21T11:59:30Z</time>
      </trkpt>
      <trkpt lat="49.86499" lon="4.74485">
        <ele>262.121</ele>
        <time>2021-02-21T11:59:34Z</time>
      </trkpt>
      <trkpt lat="49.86503" lon="4.7449">
        <ele>262.208</ele>
        <time>2021-02-21T11:59:38Z</time>
      </trkpt>
      <trkpt lat="49.86507" lon="4.74497">
        <ele>262.353</ele>
        <time>2021-02-21T11:59:43Z</time>
      </trkpt>
      <trkpt lat="49.86511" lon="4.74501">
        <ele>261.973</ele>
        <time>2021-02-21T11:59:48Z</time>
      </trkpt>
      <trkpt lat="49.86514" lon="4.74508">
        <ele>261.719</ele>
        <time>2021-02-21T11:59:52Z</time>
      </trkpt>
      <trkpt lat="49.86518" lon="4.74512">
        <ele>261.636</ele>
        <time>2021-02-21T11:59:56Z</time>
      </trkpt>
      <trkpt lat="49.86522" lon="4.74515">
        <ele>261.534</ele>
        <time>2021-02-21T12:00:41Z</time>
      </trkpt>
      <trkpt lat="49.86525" lon="4.74521">
        <ele>265.572</ele>
        <time>2021-02-21T12:01:16Z</time>
      </trkpt>
      <trkpt lat="49.86528" lon="4.74528">
        <ele>269.193</ele>
        <time>2021-02-21T12:01:26Z</time>
      </trkpt>
      <trkpt lat="49.86532" lon="4.74534">
        <ele>270.826</ele>
        <time>2021-02-21T12:01:31Z</time>
      </trkpt>
      <trkpt lat="49.86535" lon="4.7454">
        <ele>272.214</ele>
        <time>2021-02-21T12:01:38Z</time>
      </trkpt>
      <trkpt lat="49.86537" lon="4.74546">
        <ele>272.354</ele>
        <time>2021-02-21T12:01:43Z</time>
      </trkpt>
      <trkpt lat="49.86541" lon="4.74552">
        <ele>272.709</ele>
        <time>2021-02-21T12:01:52Z</time>
      </trkpt>
      <trkpt lat="49.86545" lon="4.74552">
        <ele>273.408</ele>
        <time>2021-02-21T12:01:58Z</time>
      </trkpt>
      <trkpt lat="49.8655" lon="4.74549">
        <ele>273.487</ele>
        <time>2021-02-21T12:02:04Z</time>
      </trkpt>
      <trkpt lat="49.86549" lon="4.74556">
        <ele>273.497</ele>
        <time>2021-02-21T12:02:14Z</time>
      </trkpt>
      <trkpt lat="49.86554" lon="4.7456">
        <ele>273.053</ele>
        <time>2021-02-21T12:02:19Z</time>
      </trkpt>
      <trkpt lat="49.86559" lon="4.74562">
        <ele>273.65</ele>
        <time>2021-02-21T12:02:26Z</time>
      </trkpt>
      <trkpt lat="49.86564" lon="4.74564">
        <ele>274.328</ele>
        <time>2021-02-21T12:02:31Z</time>
      </trkpt>
      <trkpt lat="49.86569" lon="4.74569">
        <ele>274.386</ele>
        <time>2021-02-21T12:02:36Z</time>
      </trkpt>
      <trkpt lat="49.86572" lon="4.74573">
        <ele>275.977</ele>
        <time>2021-02-21T12:02:55Z</time>
      </trkpt>
      <trkpt lat="49.86576" lon="4.74579">
        <ele>277.38</ele>
        <time>2021-02-21T12:03:00Z</time>
      </trkpt>
      <trkpt lat="49.8658" lon="4.74583">
        <ele>277.796</ele>
        <time>2021-02-21T12:03:05Z</time>
      </trkpt>
      <trkpt lat="49.86579" lon="4.7459">
        <ele>278.031</ele>
        <time>2021-02-21T12:03:26Z</time>
      </trkpt>
      <trkpt lat="49.86583" lon="4.74591">
        <ele>278.624</ele>
        <time>2021-02-21T12:04:04Z</time>
      </trkpt>
      <trkpt lat="49.86588" lon="4.74594">
        <ele>278.908</ele>
        <time>2021-02-21T12:04:20Z</time>
      </trkpt>
      <trkpt lat="49.86591" lon="4.74599">
        <ele>279.525</ele>
        <time>2021-02-21T12:04:24Z</time>
      </trkpt>
      <trkpt lat="49.86595" lon="4.74603">
        <ele>280.375</ele>
        <time>2021-02-21T12:04:29Z</time>
      </trkpt>
      <trkpt lat="49.866" lon="4.74607">
        <ele>279.291</ele>
        <time>2021-02-21T12:04:41Z</time>
      </trkpt>
      <trkpt lat="49.86604" lon="4.74613">
        <ele>278.528</ele>
        <time>2021-02-21T12:04:45Z</time>
      </trkpt>
      <trkpt lat="49.86608" lon="4.74618">
        <ele>278.966</ele>
        <time>2021-02-21T12:04:50Z</time>
      </trkpt>
      <trkpt lat="49.86609" lon="4.74626">
        <ele>279.174</ele>
        <time>2021-02-21T12:04:56Z</time>
      </trkpt>
      <trkpt lat="49.86611" lon="4.74632">
        <ele>279.665</ele>
        <time>2021-02-21T12:05:00Z</time>
      </trkpt>
      <trkpt lat="49.86615" lon="4.74639">
        <ele>279.948</ele>
        <time>2021-02-21T12:05:04Z</time>
      </trkpt>
      <trkpt lat="49.86617" lon="4.74646">
        <ele>280.557</ele>
        <time>2021-02-21T12:05:09Z</time>
      </trkpt>
      <trkpt lat="49.86619" lon="4.74653">
        <ele>280.9</ele>
        <time>2021-02-21T12:06:25Z</time>
      </trkpt>
      <trkpt lat="49.86623" lon="4.74663">
        <ele>281.12</ele>
        <time>2021-02-21T12:06:32Z</time>
      </trkpt>
      <trkpt lat="49.86626" lon="4.74669">
        <ele>280.808</ele>
        <time>2021-02-21T12:06:36Z</time>
      </trkpt>
      <trkpt lat="49.8663" lon="4.74674">
        <ele>280.621</ele>
        <time>2021-02-21T12:06:41Z</time>
      </trkpt>
      <trkpt lat="49.86635" lon="4.74679">
        <ele>280.571</ele>
        <time>2021-02-21T12:06:46Z</time>
      </trkpt>
      <trkpt lat="49.86639" lon="4.74684">
        <ele>280.857</ele>
        <time>2021-02-21T12:06:50Z</time>
      </trkpt>
      <trkpt lat="49.86641" lon="4.74691">
        <ele>281.074</ele>
        <time>2021-02-21T12:06:54Z</time>
      </trkpt>
      <trkpt lat="49.86644" lon="4.74699">
        <ele>281.152</ele>
        <time>2021-02-21T12:07:00Z</time>
      </trkpt>
      <trkpt lat="49.86648" lon="4.74708">
        <ele>282.47</ele>
        <time>2021-02-21T12:07:07Z</time>
      </trkpt>
      <trkpt lat="49.86651" lon="4.74713">
        <ele>283.621</ele>
        <time>2021-02-21T12:07:11Z</time>
      </trkpt>
      <trkpt lat="49.86654" lon="4.74719">
        <ele>283.994</ele>
        <time>2021-02-21T12:07:16Z</time>
      </trkpt>
      <trkpt lat="49.86658" lon="4.74721">
        <ele>284.982</ele>
        <time>2021-02-21T12:07:20Z</time>
      </trkpt>
      <trkpt lat="49.86663" lon="4.74726">
        <ele>285.943</ele>
        <time>2021-02-21T12:07:25Z</time>
      </trkpt>
      <trkpt lat="49.86669" lon="4.74725">
        <ele>286.917</ele>
        <time>2021-02-21T12:07:34Z</time>
      </trkpt>
      <trkpt lat="49.86673" lon="4.74725">
        <ele>287.108</ele>
        <time>2021-02-21T12:07:39Z</time>
      </trkpt>
      <trkpt lat="49.86678" lon="4.74727">
        <ele>286.874</ele>
        <time>2021-02-21T12:07:43Z</time>
      </trkpt>
      <trkpt lat="49.86682" lon="4.7473">
        <ele>287.884</ele>
        <time>2021-02-21T12:07:48Z</time>
      </trkpt>
      <trkpt lat="49.86686" lon="4.74732">
        <ele>289.28</ele>
        <time>2021-02-21T12:07:52Z</time>
      </trkpt>
      <trkpt lat="49.86689" lon="4.74739">
        <ele>290.187</ele>
        <time>2021-02-21T12:07:55Z</time>
      </trkpt>
      <trkpt lat="49.86692" lon="4.74744">
        <ele>291.025</ele>
        <time>2021-02-21T12:07:59Z</time>
      </trkpt>
      <trkpt lat="49.86696" lon="4.74749">
        <ele>291.533</ele>
        <time>2021-02-21T12:08:03Z</time>
      </trkpt>
      <trkpt lat="49.86701" lon="4.74751">
        <ele>292.644</ele>
        <time>2021-02-21T12:08:08Z</time>
      </trkpt>
      <trkpt lat="49.86705" lon="4.74755">
        <ele>295.747</ele>
        <time>2021-02-21T12:08:38Z</time>
      </trkpt>
      <trkpt lat="49.86708" lon="4.74761">
        <ele>297.928</ele>
        <time>2021-02-21T12:08:42Z</time>
      </trkpt>
      <trkpt lat="49.86712" lon="4.74766">
        <ele>298.889</ele>
        <time>2021-02-21T12:08:48Z</time>
      </trkpt>
      <trkpt lat="49.86716" lon="4.74772">
        <ele>299.417</ele>
        <time>2021-02-21T12:08:53Z</time>
      </trkpt>
      <trkpt lat="49.8672" lon="4.74777">
        <ele>300.108</ele>
        <time>2021-02-21T12:08:57Z</time>
      </trkpt>
      <trkpt lat="49.86724" lon="4.74781">
        <ele>300.978</ele>
        <time>2021-02-21T12:09:01Z</time>
      </trkpt>
      <trkpt lat="49.8673" lon="4.74782">
        <ele>302.278</ele>
        <time>2021-02-21T12:09:17Z</time>
      </trkpt>
      <trkpt lat="49.86734" lon="4.74787">
        <ele>303.474</ele>
        <time>2021-02-21T12:09:49Z</time>
      </trkpt>
      <trkpt lat="49.86739" lon="4.74793">
        <ele>304.121</ele>
        <time>2021-02-21T12:09:54Z</time>
      </trkpt>
      <trkpt lat="49.86743" lon="4.74797">
        <ele>304.959</ele>
        <time>2021-02-21T12:09:58Z</time>
      </trkpt>
      <trkpt lat="49.86747" lon="4.74804">
        <ele>305.837</ele>
        <time>2021-02-21T12:10:03Z</time>
      </trkpt>
      <trkpt lat="49.86751" lon="4.74809">
        <ele>307.168</ele>
        <time>2021-02-21T12:10:08Z</time>
      </trkpt>
      <trkpt lat="49.86754" lon="4.74814">
        <ele>307.981</ele>
        <time>2021-02-21T12:10:15Z</time>
      </trkpt>
      <trkpt lat="49.86758" lon="4.74817">
        <ele>308.444</ele>
        <time>2021-02-21T12:10:21Z</time>
      </trkpt>
      <trkpt lat="49.86763" lon="4.7482">
        <ele>308.705</ele>
        <time>2021-02-21T12:10:25Z</time>
      </trkpt>
      <trkpt lat="49.86766" lon="4.74824">
        <ele>308.515</ele>
        <time>2021-02-21T12:10:39Z</time>
      </trkpt>
      <trkpt lat="49.8677" lon="4.74828">
        <ele>308.408</ele>
        <time>2021-02-21T12:10:43Z</time>
      </trkpt>
      <trkpt lat="49.86774" lon="4.74833">
        <ele>308.76</ele>
        <time>2021-02-21T12:10:49Z</time>
      </trkpt>
      <trkpt lat="49.86777" lon="4.74839">
        <ele>308.91</ele>
        <time>2021-02-21T12:10:53Z</time>
      </trkpt>
      <trkpt lat="49.86781" lon="4.74844">
        <ele>309.076</ele>
        <time>2021-02-21T12:10:57Z</time>
      </trkpt>
      <trkpt lat="49.86785" lon="4.74847">
        <ele>309.173</ele>
        <time>2021-02-21T12:11:15Z</time>
      </trkpt>
      <trkpt lat="49.8679" lon="4.74848">
        <ele>308.771</ele>
        <time>2021-02-21T12:11:22Z</time>
      </trkpt>
      <trkpt lat="49.86793" lon="4.74857">
        <ele>308.929</ele>
        <time>2021-02-21T12:11:28Z</time>
      </trkpt>
      <trkpt lat="49.86797" lon="4.74862">
        <ele>309.47</ele>
        <time>2021-02-21T12:11:32Z</time>
      </trkpt>
      <trkpt lat="49.86801" lon="4.74868">
        <ele>309.723</ele>
        <time>2021-02-21T12:11:36Z</time>
      </trkpt>
      <trkpt lat="49.86805" lon="4.74874">
        <ele>310.345</ele>
        <time>2021-02-21T12:11:40Z</time>
      </trkpt>
      <trkpt lat="49.86807" lon="4.74881">
        <ele>311.547</ele>
        <time>2021-02-21T12:11:46Z</time>
      </trkpt>
      <trkpt lat="49.86809" lon="4.74888">
        <ele>312.211</ele>
        <time>2021-02-21T12:11:54Z</time>
      </trkpt>
      <trkpt lat="49.86813" lon="4.74881">
        <ele>314.208</ele>
        <time>2021-02-21T12:13:16Z</time>
      </trkpt>
      <trkpt lat="49.86817" lon="4.74886">
        <ele>316.25</ele>
        <time>2021-02-21T12:13:21Z</time>
      </trkpt>
      <trkpt lat="49.86822" lon="4.74888">
        <ele>317.44</ele>
        <time>2021-02-21T12:13:30Z</time>
      </trkpt>
      <trkpt lat="49.86826" lon="4.74892">
        <ele>317.796</ele>
        <time>2021-02-21T12:13:34Z</time>
      </trkpt>
      <trkpt lat="49.8683" lon="4.74897">
        <ele>317.963</ele>
        <time>2021-02-21T12:13:39Z</time>
      </trkpt>
      <trkpt lat="49.86833" lon="4.74902">
        <ele>318.031</ele>
        <time>2021-02-21T12:13:46Z</time>
      </trkpt>
      <trkpt lat="49.86839" lon="4.74908">
        <ele>318.979</ele>
        <time>2021-02-21T12:13:53Z</time>
      </trkpt>
      <trkpt lat="49.86842" lon="4.74914">
        <ele>319.43</ele>
        <time>2021-02-21T12:13:56Z</time>
      </trkpt>
      <trkpt lat="49.86845" lon="4.74919">
        <ele>319.793</ele>
        <time>2021-02-21T12:13:59Z</time>
      </trkpt>
      <trkpt lat="49.8685" lon="4.74924">
        <ele>319.994</ele>
        <time>2021-02-21T12:14:03Z</time>
      </trkpt>
      <trkpt lat="49.86852" lon="4.74931">
        <ele>320.857</ele>
        <time>2021-02-21T12:14:09Z</time>
      </trkpt>
      <trkpt lat="49.86855" lon="4.74937">
        <ele>321.722</ele>
        <time>2021-02-21T12:14:13Z</time>
      </trkpt>
      <trkpt lat="49.86859" lon="4.74943">
        <ele>322.708</ele>
        <time>2021-02-21T12:14:17Z</time>
      </trkpt>
      <trkpt lat="49.86861" lon="4.74952">
        <ele>323.785</ele>
        <time>2021-02-21T12:14:23Z</time>
      </trkpt>
      <trkpt lat="49.86865" lon="4.74957">
        <ele>325.165</ele>
        <time>2021-02-21T12:14:28Z</time>
      </trkpt>
      <trkpt lat="49.86867" lon="4.74965">
        <ele>325.931</ele>
        <time>2021-02-21T12:14:34Z</time>
      </trkpt>
      <trkpt lat="49.86865" lon="4.74972">
        <ele>326.848</ele>
        <time>2021-02-21T12:14:38Z</time>
      </trkpt>
      <trkpt lat="49.86865" lon="4.74979">
        <ele>326.926</ele>
        <time>2021-02-21T12:14:42Z</time>
      </trkpt>
      <trkpt lat="49.86865" lon="4.74987">
        <ele>327.834</ele>
        <time>2021-02-21T12:14:47Z</time>
      </trkpt>
      <trkpt lat="49.8687" lon="4.74998">
        <ele>328.775</ele>
        <time>2021-02-21T12:14:56Z</time>
      </trkpt>
      <trkpt lat="49.86873" lon="4.75004">
        <ele>329.798</ele>
        <time>2021-02-21T12:15:01Z</time>
      </trkpt>
      <trkpt lat="49.86877" lon="4.75009">
        <ele>330.331</ele>
        <time>2021-02-21T12:15:05Z</time>
      </trkpt>
      <trkpt lat="49.8688" lon="4.75015">
        <ele>330.661</ele>
        <time>2021-02-21T12:15:09Z</time>
      </trkpt>
      <trkpt lat="49.86882" lon="4.75023">
        <ele>331.607</ele>
        <time>2021-02-21T12:15:16Z</time>
      </trkpt>
      <trkpt lat="49.86886" lon="4.75027">
        <ele>332.208</ele>
        <time>2021-02-21T12:15:23Z</time>
      </trkpt>
      <trkpt lat="49.8689" lon="4.7503">
        <ele>333.469</ele>
        <time>2021-02-21T12:15:28Z</time>
      </trkpt>
      <trkpt lat="49.86895" lon="4.75034">
        <ele>334.179</ele>
        <time>2021-02-21T12:15:33Z</time>
      </trkpt>
      <trkpt lat="49.86901" lon="4.75039">
        <ele>335.345</ele>
        <time>2021-02-21T12:15:39Z</time>
      </trkpt>
      <trkpt lat="49.86905" lon="4.75042">
        <ele>336.062</ele>
        <time>2021-02-21T12:15:44Z</time>
      </trkpt>
      <trkpt lat="49.86909" lon="4.75048">
        <ele>336.01</ele>
        <time>2021-02-21T12:15:50Z</time>
      </trkpt>
      <trkpt lat="49.86914" lon="4.75052">
        <ele>336.048</ele>
        <time>2021-02-21T12:15:55Z</time>
      </trkpt>
      <trkpt lat="49.86918" lon="4.75054">
        <ele>335.699</ele>
        <time>2021-02-21T12:16:00Z</time>
      </trkpt>
      <trkpt lat="49.86923" lon="4.75065">
        <ele>337.042</ele>
        <time>2021-02-21T12:16:12Z</time>
      </trkpt>
      <trkpt lat="49.86928" lon="4.7507">
        <ele>337.879</ele>
        <time>2021-02-21T12:16:17Z</time>
      </trkpt>
      <trkpt lat="49.86931" lon="4.75076">
        <ele>338.305</ele>
        <time>2021-02-21T12:16:23Z</time>
      </trkpt>
      <trkpt lat="49.86936" lon="4.75079">
        <ele>339.025</ele>
        <time>2021-02-21T12:16:28Z</time>
      </trkpt>
      <trkpt lat="49.86943" lon="4.75083">
        <ele>339.808</ele>
        <time>2021-02-21T12:16:35Z</time>
      </trkpt>
      <trkpt lat="49.86948" lon="4.75087">
        <ele>339.983</ele>
        <time>2021-02-21T12:16:57Z</time>
      </trkpt>
      <trkpt lat="49.86952" lon="4.75089">
        <ele>340.823</ele>
        <time>2021-02-21T12:17:02Z</time>
      </trkpt>
      <trkpt lat="49.86958" lon="4.75092">
        <ele>341.739</ele>
        <time>2021-02-21T12:17:07Z</time>
      </trkpt>
      <trkpt lat="49.86962" lon="4.75095">
        <ele>343.096</ele>
        <time>2021-02-21T12:17:11Z</time>
      </trkpt>
      <trkpt lat="49.86966" lon="4.75099">
        <ele>344.254</ele>
        <time>2021-02-21T12:17:23Z</time>
      </trkpt>
      <trkpt lat="49.86971" lon="4.75104">
        <ele>344.982</ele>
        <time>2021-02-21T12:17:28Z</time>
      </trkpt>
      <trkpt lat="49.86974" lon="4.75107">
        <ele>344.923</ele>
        <time>2021-02-21T12:17:31Z</time>
      </trkpt>
      <trkpt lat="49.8698" lon="4.75113">
        <ele>345.776</ele>
        <time>2021-02-21T12:17:36Z</time>
      </trkpt>
      <trkpt lat="49.86982" lon="4.75119">
        <ele>346.223</ele>
        <time>2021-02-21T12:17:39Z</time>
      </trkpt>
      <trkpt lat="49.86986" lon="4.75125">
        <ele>346.583</ele>
        <time>2021-02-21T12:17:43Z</time>
      </trkpt>
      <trkpt lat="49.86989" lon="4.75133">
        <ele>346.711</ele>
        <time>2021-02-21T12:17:48Z</time>
      </trkpt>
      <trkpt lat="49.86992" lon="4.75139">
        <ele>346.808</ele>
        <time>2021-02-21T12:17:54Z</time>
      </trkpt>
      <trkpt lat="49.86989" lon="4.75146">
        <ele>345.788</ele>
        <time>2021-02-21T12:18:27Z</time>
      </trkpt>
      <trkpt lat="49.86993" lon="4.7515">
        <ele>345.018</ele>
        <time>2021-02-21T12:18:33Z</time>
      </trkpt>
      <trkpt lat="49.86997" lon="4.75154">
        <ele>344.624</ele>
        <time>2021-02-21T12:18:37Z</time>
      </trkpt>
      <trkpt lat="49.87001" lon="4.75161">
        <ele>344.851</ele>
        <time>2021-02-21T12:18:41Z</time>
      </trkpt>
      <trkpt lat="49.87003" lon="4.75169">
        <ele>344.519</ele>
        <time>2021-02-21T12:18:45Z</time>
      </trkpt>
      <trkpt lat="49.87005" lon="4.75176">
        <ele>345.147</ele>
        <time>2021-02-21T12:18:50Z</time>
      </trkpt>
      <trkpt lat="49.8701" lon="4.75182">
        <ele>345.558</ele>
        <time>2021-02-21T12:18:54Z</time>
      </trkpt>
      <trkpt lat="49.87014" lon="4.75187">
        <ele>346.111</ele>
        <time>2021-02-21T12:18:57Z</time>
      </trkpt>
      <trkpt lat="49.87016" lon="4.75194">
        <ele>346.165</ele>
        <time>2021-02-21T12:19:01Z</time>
      </trkpt>
      <trkpt lat="49.8702" lon="4.75202">
        <ele>346.168</ele>
        <time>2021-02-21T12:19:05Z</time>
      </trkpt>
      <trkpt lat="49.87022" lon="4.75209">
        <ele>345.714</ele>
        <time>2021-02-21T12:19:09Z</time>
      </trkpt>
      <trkpt lat="49.87025" lon="4.75216">
        <ele>345.108</ele>
        <time>2021-02-21T12:19:13Z</time>
      </trkpt>
      <trkpt lat="49.87025" lon="4.75223">
        <ele>344.372</ele>
        <time>2021-02-21T12:19:17Z</time>
      </trkpt>
      <trkpt lat="49.87026" lon="4.7523">
        <ele>344.262</ele>
        <time>2021-02-21T12:19:21Z</time>
      </trkpt>
      <trkpt lat="49.87026" lon="4.75238">
        <ele>344.278</ele>
        <time>2021-02-21T12:19:25Z</time>
      </trkpt>
      <trkpt lat="49.87028" lon="4.75245">
        <ele>343.835</ele>
        <time>2021-02-21T12:19:28Z</time>
      </trkpt>
      <trkpt lat="49.87031" lon="4.7524">
        <ele>343.563</ele>
        <time>2021-02-21T12:20:02Z</time>
      </trkpt>
      <trkpt lat="49.87034" lon="4.75248">
        <ele>344.151</ele>
        <time>2021-02-21T12:20:06Z</time>
      </trkpt>
      <trkpt lat="49.87031" lon="4.75253">
        <ele>346.162</ele>
        <time>2021-02-21T12:20:36Z</time>
      </trkpt>
      <trkpt lat="49.87032" lon="4.7526">
        <ele>347.335</ele>
        <time>2021-02-21T12:20:42Z</time>
      </trkpt>
      <trkpt lat="49.87032" lon="4.75268">
        <ele>348.094</ele>
        <time>2021-02-21T12:20:47Z</time>
      </trkpt>
      <trkpt lat="49.87033" lon="4.75275">
        <ele>348.457</ele>
        <time>2021-02-21T12:20:52Z</time>
      </trkpt>
      <trkpt lat="49.87038" lon="4.75283">
        <ele>351.122</ele>
        <time>2021-02-21T12:21:07Z</time>
      </trkpt>
      <trkpt lat="49.87041" lon="4.75288">
        <ele>353.508</ele>
        <time>2021-02-21T12:21:12Z</time>
      </trkpt>
      <trkpt lat="49.87037" lon="4.75294">
        <ele>355.335</ele>
        <time>2021-02-21T12:21:44Z</time>
      </trkpt>
      <trkpt lat="49.87033" lon="4.75295">
        <ele>356.495</ele>
        <time>2021-02-21T12:21:48Z</time>
      </trkpt>
      <trkpt lat="49.87028" lon="4.75292">
        <ele>357.141</ele>
        <time>2021-02-21T12:21:54Z</time>
      </trkpt>
      <trkpt lat="49.87025" lon="4.75298">
        <ele>357.528</ele>
        <time>2021-02-21T12:22:01Z</time>
      </trkpt>
      <trkpt lat="49.87022" lon="4.75304">
        <ele>358.536</ele>
        <time>2021-02-21T12:22:24Z</time>
      </trkpt>
      <trkpt lat="49.87017" lon="4.75305">
        <ele>359.134</ele>
        <time>2021-02-21T12:22:29Z</time>
      </trkpt>
      <trkpt lat="49.87012" lon="4.75304">
        <ele>359.195</ele>
        <time>2021-02-21T12:22:34Z</time>
      </trkpt>
      <trkpt lat="49.87007" lon="4.75301">
        <ele>359.578</ele>
        <time>2021-02-21T12:22:38Z</time>
      </trkpt>
      <trkpt lat="49.87002" lon="4.75302">
        <ele>359.734</ele>
        <time>2021-02-21T12:22:42Z</time>
      </trkpt>
      <trkpt lat="49.86997" lon="4.753">
        <ele>360.655</ele>
        <time>2021-02-21T12:22:46Z</time>
      </trkpt>
      <trkpt lat="49.86992" lon="4.753">
        <ele>362.01</ele>
        <time>2021-02-21T12:22:51Z</time>
      </trkpt>
      <trkpt lat="49.86987" lon="4.75299">
        <ele>362.808</ele>
        <time>2021-02-21T12:22:57Z</time>
      </trkpt>
      <trkpt lat="49.86982" lon="4.75303">
        <ele>363.769</ele>
        <time>2021-02-21T12:23:05Z</time>
      </trkpt>
      <trkpt lat="49.86977" lon="4.75306">
        <ele>363.459</ele>
        <time>2021-02-21T12:23:09Z</time>
      </trkpt>
      <trkpt lat="49.86973" lon="4.75309">
        <ele>362.855</ele>
        <time>2021-02-21T12:23:14Z</time>
      </trkpt>
      <trkpt lat="49.86968" lon="4.75312">
        <ele>362.172</ele>
        <time>2021-02-21T12:23:18Z</time>
      </trkpt>
      <trkpt lat="49.86964" lon="4.75316">
        <ele>360.96</ele>
        <time>2021-02-21T12:23:21Z</time>
      </trkpt>
      <trkpt lat="49.8696" lon="4.75321">
        <ele>359.868</ele>
        <time>2021-02-21T12:23:24Z</time>
      </trkpt>
      <trkpt lat="49.86955" lon="4.75325">
        <ele>359.119</ele>
        <time>2021-02-21T12:23:29Z</time>
      </trkpt>
      <trkpt lat="49.86954" lon="4.75332">
        <ele>358.362</ele>
        <time>2021-02-21T12:23:35Z</time>
      </trkpt>
      <trkpt lat="49.86958" lon="4.75336">
        <ele>357.463</ele>
        <time>2021-02-21T12:24:01Z</time>
      </trkpt>
      <trkpt lat="49.86962" lon="4.75341">
        <ele>357.744</ele>
        <time>2021-02-21T12:24:06Z</time>
      </trkpt>
      <trkpt lat="49.86968" lon="4.75346">
        <ele>357.918</ele>
        <time>2021-02-21T12:24:11Z</time>
      </trkpt>
      <trkpt lat="49.86971" lon="4.75352">
        <ele>357.608</ele>
        <time>2021-02-21T12:24:14Z</time>
      </trkpt>
      <trkpt lat="49.86976" lon="4.75356">
        <ele>357.042</ele>
        <time>2021-02-21T12:24:17Z</time>
      </trkpt>
      <trkpt lat="49.8698" lon="4.7536">
        <ele>356.352</ele>
        <time>2021-02-21T12:24:21Z</time>
      </trkpt>
      <trkpt lat="49.86985" lon="4.75364">
        <ele>355.198</ele>
        <time>2021-02-21T12:24:42Z</time>
      </trkpt>
      <trkpt lat="49.86987" lon="4.75371">
        <ele>354.015</ele>
        <time>2021-02-21T12:25:39Z</time>
      </trkpt>
      <trkpt lat="49.8699" lon="4.75377">
        <ele>352.993</ele>
        <time>2021-02-21T12:25:44Z</time>
      </trkpt>
      <trkpt lat="49.86994" lon="4.75383">
        <ele>352.641</ele>
        <time>2021-02-21T12:25:48Z</time>
      </trkpt>
      <trkpt lat="49.86996" lon="4.7539">
        <ele>352.032</ele>
        <time>2021-02-21T12:25:52Z</time>
      </trkpt>
      <trkpt lat="49.86999" lon="4.75396">
        <ele>351.755</ele>
        <time>2021-02-21T12:25:55Z</time>
      </trkpt>
      <trkpt lat="49.87003" lon="4.75401">
        <ele>351.951</ele>
        <time>2021-02-21T12:25:59Z</time>
      </trkpt>
      <trkpt lat="49.87007" lon="4.75407">
        <ele>351.601</ele>
        <time>2021-02-21T12:26:04Z</time>
      </trkpt>
      <trkpt lat="49.87011" lon="4.7541">
        <ele>351.811</ele>
        <time>2021-02-21T12:26:20Z</time>
      </trkpt>
      <trkpt lat="49.87016" lon="4.75416">
        <ele>351.908</ele>
        <time>2021-02-21T12:26:24Z</time>
      </trkpt>
      <trkpt lat="49.8702" lon="4.75421">
        <ele>352.021</ele>
        <time>2021-02-21T12:26:28Z</time>
      </trkpt>
      <trkpt lat="49.87024" lon="4.75429">
        <ele>352.111</ele>
        <time>2021-02-21T12:26:32Z</time>
      </trkpt>
      <trkpt lat="49.87028" lon="4.75437">
        <ele>352.537</ele>
        <time>2021-02-21T12:26:37Z</time>
      </trkpt>
      <trkpt lat="49.87029" lon="4.75444">
        <ele>352.494</ele>
        <time>2021-02-21T12:26:40Z</time>
      </trkpt>
      <trkpt lat="49.87032" lon="4.75451">
        <ele>352.372</ele>
        <time>2021-02-21T12:26:43Z</time>
      </trkpt>
      <trkpt lat="49.87035" lon="4.75457">
        <ele>353.02</ele>
        <time>2021-02-21T12:26:47Z</time>
      </trkpt>
      <trkpt lat="49.8704" lon="4.75461">
        <ele>353.821</ele>
        <time>2021-02-21T12:26:51Z</time>
      </trkpt>
      <trkpt lat="49.87043" lon="4.75466">
        <ele>353.954</ele>
        <time>2021-02-21T12:26:56Z</time>
      </trkpt>
      <trkpt lat="49.87048" lon="4.75472">
        <ele>354.038</ele>
        <time>2021-02-21T12:27:02Z</time>
      </trkpt>
      <trkpt lat="49.87052" lon="4.75476">
        <ele>354.07</ele>
        <time>2021-02-21T12:27:05Z</time>
      </trkpt>
      <trkpt lat="49.87056" lon="4.75481">
        <ele>354.417</ele>
        <time>2021-02-21T12:27:11Z</time>
      </trkpt>
      <trkpt lat="49.8706" lon="4.75486">
        <ele>355.108</ele>
        <time>2021-02-21T12:27:14Z</time>
      </trkpt>
      <trkpt lat="49.87064" lon="4.7549">
        <ele>356.749</ele>
        <time>2021-02-21T12:27:17Z</time>
      </trkpt>
      <trkpt lat="49.87068" lon="4.75495">
        <ele>358.919</ele>
        <time>2021-02-21T12:27:23Z</time>
      </trkpt>
      <trkpt lat="49.87071" lon="4.75501">
        <ele>361.095</ele>
        <time>2021-02-21T12:27:27Z</time>
      </trkpt>
      <trkpt lat="49.87076" lon="4.75505">
        <ele>362.322</ele>
        <time>2021-02-21T12:27:33Z</time>
      </trkpt>
      <trkpt lat="49.8708" lon="4.7551">
        <ele>362.74</ele>
        <time>2021-02-21T12:27:41Z</time>
      </trkpt>
      <trkpt lat="49.87085" lon="4.75513">
        <ele>363.348</ele>
        <time>2021-02-21T12:27:45Z</time>
      </trkpt>
      <trkpt lat="49.87089" lon="4.75518">
        <ele>363.769</ele>
        <time>2021-02-21T12:27:49Z</time>
      </trkpt>
      <trkpt lat="49.87094" lon="4.7552">
        <ele>364.362</ele>
        <time>2021-02-21T12:27:53Z</time>
      </trkpt>
      <trkpt lat="49.87099" lon="4.75525">
        <ele>364.381</ele>
        <time>2021-02-21T12:27:57Z</time>
      </trkpt>
      <trkpt lat="49.87104" lon="4.75528">
        <ele>364.761</ele>
        <time>2021-02-21T12:28:01Z</time>
      </trkpt>
      <trkpt lat="49.87108" lon="4.75533">
        <ele>365.317</ele>
        <time>2021-02-21T12:28:04Z</time>
      </trkpt>
      <trkpt lat="49.87112" lon="4.75537">
        <ele>365.708</ele>
        <time>2021-02-21T12:28:07Z</time>
      </trkpt>
      <trkpt lat="49.87115" lon="4.75542">
        <ele>366.384</ele>
        <time>2021-02-21T12:28:12Z</time>
      </trkpt>
      <trkpt lat="49.8712" lon="4.7554">
        <ele>365.544</ele>
        <time>2021-02-21T12:29:16Z</time>
      </trkpt>
      <trkpt lat="49.87125" lon="4.75538">
        <ele>365.47</ele>
        <time>2021-02-21T12:29:20Z</time>
      </trkpt>
      <trkpt lat="49.8713" lon="4.75536">
        <ele>365.327</ele>
        <time>2021-02-21T12:29:24Z</time>
      </trkpt>
      <trkpt lat="49.87134" lon="4.75533">
        <ele>364.965</ele>
        <time>2021-02-21T12:29:29Z</time>
      </trkpt>
      <trkpt lat="49.87138" lon="4.75531">
        <ele>364.233</ele>
        <time>2021-02-21T12:29:34Z</time>
      </trkpt>
      <trkpt lat="49.87143" lon="4.75529">
        <ele>363.424</ele>
        <time>2021-02-21T12:29:39Z</time>
      </trkpt>
      <trkpt lat="49.87147" lon="4.75526">
        <ele>362.987</ele>
        <time>2021-02-21T12:29:42Z</time>
      </trkpt>
      <trkpt lat="49.87152" lon="4.75526">
        <ele>362.612</ele>
        <time>2021-02-21T12:29:46Z</time>
      </trkpt>
      <trkpt lat="49.87157" lon="4.75525">
        <ele>362.432</ele>
        <time>2021-02-21T12:29:49Z</time>
      </trkpt>
      <trkpt lat="49.87162" lon="4.75526">
        <ele>362.305</ele>
        <time>2021-02-21T12:29:54Z</time>
      </trkpt>
      <trkpt lat="49.87167" lon="4.75524">
        <ele>361.808</ele>
        <time>2021-02-21T12:29:58Z</time>
      </trkpt>
      <trkpt lat="49.87171" lon="4.7553">
        <ele>360.327</ele>
        <time>2021-02-21T12:30:13Z</time>
      </trkpt>
      <trkpt lat="49.87175" lon="4.75525">
        <ele>358.697</ele>
        <time>2021-02-21T12:30:19Z</time>
      </trkpt>
      <trkpt lat="49.8718" lon="4.75522">
        <ele>357.653</ele>
        <time>2021-02-21T12:30:22Z</time>
      </trkpt>
      <trkpt lat="49.87184" lon="4.75517">
        <ele>356.26</ele>
        <time>2021-02-21T12:30:26Z</time>
      </trkpt>
      <trkpt lat="49.87188" lon="4.75511">
        <ele>355.448</ele>
        <time>2021-02-21T12:30:32Z</time>
      </trkpt>
      <trkpt lat="49.87193" lon="4.75506">
        <ele>354.996</ele>
        <time>2021-02-21T12:30:37Z</time>
      </trkpt>
      <trkpt lat="49.87197" lon="4.75504">
        <ele>354.657</ele>
        <time>2021-02-21T12:30:41Z</time>
      </trkpt>
      <trkpt lat="49.87204" lon="4.755">
        <ele>354.03</ele>
        <time>2021-02-21T12:30:47Z</time>
      </trkpt>
      <trkpt lat="49.8721" lon="4.75497">
        <ele>353.715</ele>
        <time>2021-02-21T12:30:51Z</time>
      </trkpt>
      <trkpt lat="49.87215" lon="4.75498">
        <ele>353.965</ele>
        <time>2021-02-21T12:30:55Z</time>
      </trkpt>
      <trkpt lat="49.8722" lon="4.755">
        <ele>354.411</ele>
        <time>2021-02-21T12:31:01Z</time>
      </trkpt>
      <trkpt lat="49.87225" lon="4.75501">
        <ele>355.108</ele>
        <time>2021-02-21T12:31:04Z</time>
      </trkpt>
      <trkpt lat="49.8723" lon="4.75498">
        <ele>355.547</ele>
        <time>2021-02-21T12:31:09Z</time>
      </trkpt>
      <trkpt lat="49.87234" lon="4.75496">
        <ele>356.237</ele>
        <time>2021-02-21T12:31:12Z</time>
      </trkpt>
      <trkpt lat="49.87239" lon="4.75494">
        <ele>357.063</ele>
        <time>2021-02-21T12:31:16Z</time>
      </trkpt>
      <trkpt lat="49.87243" lon="4.75497">
        <ele>357.56</ele>
        <time>2021-02-21T12:31:42Z</time>
      </trkpt>
      <trkpt lat="49.87247" lon="4.75502">
        <ele>357.458</ele>
        <time>2021-02-21T12:31:52Z</time>
      </trkpt>
      <trkpt lat="49.8725" lon="4.75507">
        <ele>357.776</ele>
        <time>2021-02-21T12:31:56Z</time>
      </trkpt>
      <trkpt lat="49.87255" lon="4.75512">
        <ele>357.967</ele>
        <time>2021-02-21T12:32:02Z</time>
      </trkpt>
      <trkpt lat="49.87259" lon="4.75519">
        <ele>358.45</ele>
        <time>2021-02-21T12:32:08Z</time>
      </trkpt>
      <trkpt lat="49.87264" lon="4.75524">
        <ele>357.958</ele>
        <time>2021-02-21T12:32:14Z</time>
      </trkpt>
      <trkpt lat="49.87267" lon="4.7553">
        <ele>358.452</ele>
        <time>2021-02-21T12:32:22Z</time>
      </trkpt>
      <trkpt lat="49.8727" lon="4.75537">
        <ele>359.117</ele>
        <time>2021-02-21T12:32:28Z</time>
      </trkpt>
      <trkpt lat="49.87275" lon="4.75544">
        <ele>359.908</ele>
        <time>2021-02-21T12:32:35Z</time>
      </trkpt>
      <trkpt lat="49.87278" lon="4.75552">
        <ele>360.441</ele>
        <time>2021-02-21T12:32:39Z</time>
      </trkpt>
      <trkpt lat="49.87279" lon="4.75558">
        <ele>361.151</ele>
        <time>2021-02-21T12:33:41Z</time>
      </trkpt>
      <trkpt lat="49.87286" lon="4.75562">
        <ele>361.927</ele>
        <time>2021-02-21T12:33:48Z</time>
      </trkpt>
      <trkpt lat="49.87291" lon="4.75566">
        <ele>363.674</ele>
        <time>2021-02-21T12:33:54Z</time>
      </trkpt>
      <trkpt lat="49.87294" lon="4.75572">
        <ele>365.892</ele>
        <time>2021-02-21T12:34:02Z</time>
      </trkpt>
      <trkpt lat="49.87297" lon="4.75578">
        <ele>366.76</ele>
        <time>2021-02-21T12:34:07Z</time>
      </trkpt>
      <trkpt lat="49.87299" lon="4.75584">
        <ele>367.711</ele>
        <time>2021-02-21T12:34:11Z</time>
      </trkpt>
      <trkpt lat="49.87302" lon="4.75591">
        <ele>368.384</ele>
        <time>2021-02-21T12:34:16Z</time>
      </trkpt>
      <trkpt lat="49.87306" lon="4.75597">
        <ele>368.655</ele>
        <time>2021-02-21T12:34:20Z</time>
      </trkpt>
      <trkpt lat="49.87311" lon="4.75604">
        <ele>368.407</ele>
        <time>2021-02-21T12:34:27Z</time>
      </trkpt>
      <trkpt lat="49.87314" lon="4.75611">
        <ele>369.117</ele>
        <time>2021-02-21T12:34:32Z</time>
      </trkpt>
      <trkpt lat="49.87318" lon="4.75615">
        <ele>371.508</ele>
        <time>2021-02-21T12:34:52Z</time>
      </trkpt>
      <trkpt lat="49.87321" lon="4.75621">
        <ele>372.921</ele>
        <time>2021-02-21T12:34:57Z</time>
      </trkpt>
      <trkpt lat="49.8732" lon="4.75628">
        <ele>374.271</ele>
        <time>2021-02-21T12:35:02Z</time>
      </trkpt>
      <trkpt lat="49.87319" lon="4.75637">
        <ele>374.287</ele>
        <time>2021-02-21T12:35:08Z</time>
      </trkpt>
      <trkpt lat="49.87321" lon="4.75644">
        <ele>373.814</ele>
        <time>2021-02-21T12:35:12Z</time>
      </trkpt>
      <trkpt lat="49.87323" lon="4.75651">
        <ele>373.132</ele>
        <time>2021-02-21T12:35:16Z</time>
      </trkpt>
      <trkpt lat="49.87326" lon="4.75658">
        <ele>372.33</ele>
        <time>2021-02-21T12:35:21Z</time>
      </trkpt>
      <trkpt lat="49.87328" lon="4.75665">
        <ele>371.431</ele>
        <time>2021-02-21T12:35:25Z</time>
      </trkpt>
      <trkpt lat="49.8733" lon="4.75672">
        <ele>370.934</ele>
        <time>2021-02-21T12:35:29Z</time>
      </trkpt>
      <trkpt lat="49.8733" lon="4.75679">
        <ele>370.662</ele>
        <time>2021-02-21T12:35:33Z</time>
      </trkpt>
      <trkpt lat="49.87332" lon="4.75687">
        <ele>370.883</ele>
        <time>2021-02-21T12:35:40Z</time>
      </trkpt>
      <trkpt lat="49.87332" lon="4.75695">
        <ele>370.511</ele>
        <time>2021-02-21T12:35:45Z</time>
      </trkpt>
      <trkpt lat="49.87333" lon="4.75703">
        <ele>370.308</ele>
        <time>2021-02-21T12:35:49Z</time>
      </trkpt>
      <trkpt lat="49.87333" lon="4.7571">
        <ele>370.282</ele>
        <time>2021-02-21T12:35:56Z</time>
      </trkpt>
      <trkpt lat="49.87337" lon="4.75718">
        <ele>369.772</ele>
        <time>2021-02-21T12:36:45Z</time>
      </trkpt>
      <trkpt lat="49.87339" lon="4.75726">
        <ele>369.828</ele>
        <time>2021-02-21T12:36:50Z</time>
      </trkpt>
      <trkpt lat="49.87339" lon="4.75733">
        <ele>369.975</ele>
        <time>2021-02-21T12:36:54Z</time>
      </trkpt>
      <trkpt lat="49.87342" lon="4.75739">
        <ele>370.323</ele>
        <time>2021-02-21T12:36:58Z</time>
      </trkpt>
      <trkpt lat="49.87345" lon="4.75745">
        <ele>371.441</ele>
        <time>2021-02-21T12:37:03Z</time>
      </trkpt>
      <trkpt lat="49.8735" lon="4.7575">
        <ele>372.832</ele>
        <time>2021-02-21T12:37:08Z</time>
      </trkpt>
      <trkpt lat="49.87353" lon="4.75756">
        <ele>374.115</ele>
        <time>2021-02-21T12:37:13Z</time>
      </trkpt>
      <trkpt lat="49.87357" lon="4.75763">
        <ele>375.316</ele>
        <time>2021-02-21T12:37:18Z</time>
      </trkpt>
      <trkpt lat="49.87361" lon="4.75767">
        <ele>376.876</ele>
        <time>2021-02-21T12:37:23Z</time>
      </trkpt>
      <trkpt lat="49.87363" lon="4.75774">
        <ele>378.113</ele>
        <time>2021-02-21T12:37:28Z</time>
      </trkpt>
      <trkpt lat="49.87367" lon="4.75777">
        <ele>380.908</ele>
        <time>2021-02-21T12:37:52Z</time>
      </trkpt>
      <trkpt lat="49.87371" lon="4.75782">
        <ele>384.647</ele>
        <time>2021-02-21T12:38:39Z</time>
      </trkpt>
      <trkpt lat="49.87373" lon="4.75792">
        <ele>386.077</ele>
        <time>2021-02-21T12:38:46Z</time>
      </trkpt>
      <trkpt lat="49.87375" lon="4.75798">
        <ele>386.023</ele>
        <time>2021-02-21T12:38:49Z</time>
      </trkpt>
      <trkpt lat="49.87377" lon="4.75806">
        <ele>385.64</ele>
        <time>2021-02-21T12:38:53Z</time>
      </trkpt>
      <trkpt lat="49.87379" lon="4.75813">
        <ele>386.268</ele>
        <time>2021-02-21T12:38:58Z</time>
      </trkpt>
      <trkpt lat="49.87382" lon="4.75818">
        <ele>386.586</ele>
        <time>2021-02-21T12:39:03Z</time>
      </trkpt>
      <trkpt lat="49.87386" lon="4.75821">
        <ele>387.117</ele>
        <time>2021-02-21T12:39:07Z</time>
      </trkpt>
      <trkpt lat="49.8739" lon="4.75828">
        <ele>388.39</ele>
        <time>2021-02-21T12:39:13Z</time>
      </trkpt>
      <trkpt lat="49.87393" lon="4.75834">
        <ele>388.258</ele>
        <time>2021-02-21T12:39:19Z</time>
      </trkpt>
      <trkpt lat="49.87395" lon="4.7584">
        <ele>386.952</ele>
        <time>2021-02-21T12:39:26Z</time>
      </trkpt>
      <trkpt lat="49.87398" lon="4.75848">
        <ele>386.517</ele>
        <time>2021-02-21T12:39:34Z</time>
      </trkpt>
      <trkpt lat="49.874" lon="4.75854">
        <ele>386.708</ele>
        <time>2021-02-21T12:39:40Z</time>
      </trkpt>
      <trkpt lat="49.87402" lon="4.75861">
        <ele>387.241</ele>
        <time>2021-02-21T12:39:44Z</time>
      </trkpt>
      <trkpt lat="49.87403" lon="4.75868">
        <ele>387.551</ele>
        <time>2021-02-21T12:39:48Z</time>
      </trkpt>
      <trkpt lat="49.87407" lon="4.75878">
        <ele>387.337</ele>
        <time>2021-02-21T12:40:00Z</time>
      </trkpt>
      <trkpt lat="49.87408" lon="4.75885">
        <ele>387.654</ele>
        <time>2021-02-21T12:40:06Z</time>
      </trkpt>
      <trkpt lat="49.87412" lon="4.75882">
        <ele>387.082</ele>
        <time>2021-02-21T12:40:28Z</time>
      </trkpt>
      <trkpt lat="49.87415" lon="4.75889">
        <ele>386.26</ele>
        <time>2021-02-21T12:40:52Z</time>
      </trkpt>
      <trkpt lat="49.87418" lon="4.75897">
        <ele>386.561</ele>
        <time>2021-02-21T12:40:58Z</time>
      </trkpt>
      <trkpt lat="49.87419" lon="4.75906">
        <ele>386.794</ele>
        <time>2021-02-21T12:41:02Z</time>
      </trkpt>
      <trkpt lat="49.87422" lon="4.75916">
        <ele>387.287</ele>
        <time>2021-02-21T12:41:09Z</time>
      </trkpt>
      <trkpt lat="49.87425" lon="4.75922">
        <ele>389.142</ele>
        <time>2021-02-21T12:41:14Z</time>
      </trkpt>
      <trkpt lat="49.87428" lon="4.75928">
        <ele>390.226</ele>
        <time>2021-02-21T12:41:19Z</time>
      </trkpt>
      <trkpt lat="49.8743" lon="4.75935">
        <ele>391.308</ele>
        <time>2021-02-21T12:41:24Z</time>
      </trkpt>
      <trkpt lat="49.87432" lon="4.75943">
        <ele>391.224</ele>
        <time>2021-02-21T12:41:28Z</time>
      </trkpt>
      <trkpt lat="49.87434" lon="4.7595">
        <ele>390.734</ele>
        <time>2021-02-21T12:41:32Z</time>
      </trkpt>
      <trkpt lat="49.87437" lon="4.75958">
        <ele>390.04</ele>
        <time>2021-02-21T12:41:38Z</time>
      </trkpt>
      <trkpt lat="49.87438" lon="4.75966">
        <ele>388.817</ele>
        <time>2021-02-21T12:41:43Z</time>
      </trkpt>
      <trkpt lat="49.87441" lon="4.75973">
        <ele>387.745</ele>
        <time>2021-02-21T12:41:47Z</time>
      </trkpt>
      <trkpt lat="49.87444" lon="4.75981">
        <ele>387.823</ele>
        <time>2021-02-21T12:41:55Z</time>
      </trkpt>
      <trkpt lat="49.87447" lon="4.75986">
        <ele>388.314</ele>
        <time>2021-02-21T12:42:00Z</time>
      </trkpt>
      <trkpt lat="49.87447" lon="4.75995">
        <ele>391.097</ele>
        <time>2021-02-21T12:42:18Z</time>
      </trkpt>
      <trkpt lat="49.87452" lon="4.75992">
        <ele>393.033</ele>
        <time>2021-02-21T12:43:12Z</time>
      </trkpt>
      <trkpt lat="49.87456" lon="4.75986">
        <ele>393.423</ele>
        <time>2021-02-21T12:43:16Z</time>
      </trkpt>
      <trkpt lat="49.8746" lon="4.75981">
        <ele>392.415</ele>
        <time>2021-02-21T12:43:21Z</time>
      </trkpt>
      <trkpt lat="49.87462" lon="4.75973">
        <ele>391.808</ele>
        <time>2021-02-21T12:43:26Z</time>
      </trkpt>
      <trkpt lat="49.87464" lon="4.75966">
        <ele>391.969</ele>
        <time>2021-02-21T12:43:30Z</time>
      </trkpt>
      <trkpt lat="49.87463" lon="4.75959">
        <ele>391.939</ele>
        <time>2021-02-21T12:43:34Z</time>
      </trkpt>
      <trkpt lat="49.87466" lon="4.75952">
        <ele>392.385</ele>
        <time>2021-02-21T12:43:48Z</time>
      </trkpt>
      <trkpt lat="49.87467" lon="4.75945">
        <ele>392.272</ele>
        <time>2021-02-21T12:43:53Z</time>
      </trkpt>
      <trkpt lat="49.87465" lon="4.75938">
        <ele>392.14</ele>
        <time>2021-02-21T12:44:20Z</time>
      </trkpt>
      <trkpt lat="49.87465" lon="4.75929">
        <ele>392.498</ele>
        <time>2021-02-21T12:44:25Z</time>
      </trkpt>
      <trkpt lat="49.87464" lon="4.75922">
        <ele>393.099</ele>
        <time>2021-02-21T12:44:30Z</time>
      </trkpt>
      <trkpt lat="49.8746" lon="4.75922">
        <ele>393.432</ele>
        <time>2021-02-21T12:44:41Z</time>
      </trkpt>
      <trkpt lat="49.87464" lon="4.75917">
        <ele>392.483</ele>
        <time>2021-02-21T12:44:48Z</time>
      </trkpt>
      <trkpt lat="49.87463" lon="4.75909">
        <ele>391.025</ele>
        <time>2021-02-21T12:44:58Z</time>
      </trkpt>
      <trkpt lat="49.87465" lon="4.75902">
        <ele>389.017</ele>
        <time>2021-02-21T12:45:05Z</time>
      </trkpt>
      <trkpt lat="49.87467" lon="4.75895">
        <ele>387.408</ele>
        <time>2021-02-21T12:45:18Z</time>
      </trkpt>
      <trkpt lat="49.87466" lon="4.75882">
        <ele>386.874</ele>
        <time>2021-02-21T12:45:26Z</time>
      </trkpt>
      <trkpt lat="49.87466" lon="4.75875">
        <ele>386.154</ele>
        <time>2021-02-21T12:45:32Z</time>
      </trkpt>
      <trkpt lat="49.87467" lon="4.75867">
        <ele>385.31</ele>
        <time>2021-02-21T12:45:36Z</time>
      </trkpt>
      <trkpt lat="49.87464" lon="4.7586">
        <ele>384.887</ele>
        <time>2021-02-21T12:45:42Z</time>
      </trkpt>
      <trkpt lat="49.87464" lon="4.75853">
        <ele>384.525</ele>
        <time>2021-02-21T12:45:47Z</time>
      </trkpt>
      <trkpt lat="49.87465" lon="4.75846">
        <ele>383.513</ele>
        <time>2021-02-21T12:45:51Z</time>
      </trkpt>
      <trkpt lat="49.87468" lon="4.75839">
        <ele>382.544</ele>
        <time>2021-02-21T12:45:56Z</time>
      </trkpt>
      <trkpt lat="49.87469" lon="4.75832">
        <ele>381.997</ele>
        <time>2021-02-21T12:46:01Z</time>
      </trkpt>
      <trkpt lat="49.87471" lon="4.75826">
        <ele>380.731</ele>
        <time>2021-02-21T12:46:05Z</time>
      </trkpt>
      <trkpt lat="49.87475" lon="4.7582">
        <ele>380.061</ele>
        <time>2021-02-21T12:46:09Z</time>
      </trkpt>
      <trkpt lat="49.87478" lon="4.75814">
        <ele>378.807</ele>
        <time>2021-02-21T12:46:14Z</time>
      </trkpt>
      <trkpt lat="49.87482" lon="4.75809">
        <ele>377.708</ele>
        <time>2021-02-21T12:46:18Z</time>
      </trkpt>
      <trkpt lat="49.87486" lon="4.75803">
        <ele>377.059</ele>
        <time>2021-02-21T12:46:22Z</time>
      </trkpt>
      <trkpt lat="49.87489" lon="4.75797">
        <ele>376.219</ele>
        <time>2021-02-21T12:46:26Z</time>
      </trkpt>
      <trkpt lat="49.87492" lon="4.75792">
        <ele>375.395</ele>
        <time>2021-02-21T12:46:30Z</time>
      </trkpt>
      <trkpt lat="49.87495" lon="4.75785">
        <ele>374.452</ele>
        <time>2021-02-21T12:46:35Z</time>
      </trkpt>
      <trkpt lat="49.87499" lon="4.75779">
        <ele>371.85</ele>
        <time>2021-02-21T12:46:51Z</time>
      </trkpt>
      <trkpt lat="49.87503" lon="4.75775">
        <ele>370.368</ele>
        <time>2021-02-21T12:46:56Z</time>
      </trkpt>
      <trkpt lat="49.87508" lon="4.75771">
        <ele>369.059</ele>
        <time>2021-02-21T12:47:01Z</time>
      </trkpt>
      <trkpt lat="49.87513" lon="4.75768">
        <ele>367.842</ele>
        <time>2021-02-21T12:47:06Z</time>
      </trkpt>
      <trkpt lat="49.87518" lon="4.75768">
        <ele>366.368</ele>
        <time>2021-02-21T12:47:19Z</time>
      </trkpt>
      <trkpt lat="49.87522" lon="4.75766">
        <ele>364.642</ele>
        <time>2021-02-21T12:47:24Z</time>
      </trkpt>
      <trkpt lat="49.87527" lon="4.75762">
        <ele>362.826</ele>
        <time>2021-02-21T12:47:29Z</time>
      </trkpt>
      <trkpt lat="49.87531" lon="4.75759">
        <ele>361.708</ele>
        <time>2021-02-21T12:47:33Z</time>
      </trkpt>
      <trkpt lat="49.87536" lon="4.75757">
        <ele>359.852</ele>
        <time>2021-02-21T12:47:39Z</time>
      </trkpt>
      <trkpt lat="49.87541" lon="4.75753">
        <ele>359.192</ele>
        <time>2021-02-21T12:47:44Z</time>
      </trkpt>
      <trkpt lat="49.87545" lon="4.75751">
        <ele>357.968</ele>
        <time>2021-02-21T12:47:50Z</time>
      </trkpt>
      <trkpt lat="49.8755" lon="4.75748">
        <ele>356.445</ele>
        <time>2021-02-21T12:47:55Z</time>
      </trkpt>
      <trkpt lat="49.87555" lon="4.75746">
        <ele>355.543</ele>
        <time>2021-02-21T12:48:00Z</time>
      </trkpt>
      <trkpt lat="49.8756" lon="4.75743">
        <ele>354.161</ele>
        <time>2021-02-21T12:48:05Z</time>
      </trkpt>
      <trkpt lat="49.87564" lon="4.75739">
        <ele>353.392</ele>
        <time>2021-02-21T12:48:10Z</time>
      </trkpt>
      <trkpt lat="49.87567" lon="4.75733">
        <ele>352.855</ele>
        <time>2021-02-21T12:48:15Z</time>
      </trkpt>
      <trkpt lat="49.8757" lon="4.75727">
        <ele>353.356</ele>
        <time>2021-02-21T12:48:20Z</time>
      </trkpt>
      <trkpt lat="49.87574" lon="4.75724">
        <ele>353.259</ele>
        <time>2021-02-21T12:48:29Z</time>
      </trkpt>
      <trkpt lat="49.87577" lon="4.75718">
        <ele>352.314</ele>
        <time>2021-02-21T12:49:17Z</time>
      </trkpt>
      <trkpt lat="49.8758" lon="4.7571">
        <ele>351.008</ele>
        <time>2021-02-21T12:49:21Z</time>
      </trkpt>
      <trkpt lat="49.87583" lon="4.75703">
        <ele>349.811</ele>
        <time>2021-02-21T12:49:25Z</time>
      </trkpt>
      <trkpt lat="49.87586" lon="4.75697">
        <ele>349.131</ele>
        <time>2021-02-21T12:49:29Z</time>
      </trkpt>
      <trkpt lat="49.87589" lon="4.7569">
        <ele>347.917</ele>
        <time>2021-02-21T12:49:34Z</time>
      </trkpt>
      <trkpt lat="49.87591" lon="4.75683">
        <ele>346.454</ele>
        <time>2021-02-21T12:50:21Z</time>
      </trkpt>
      <trkpt lat="49.87593" lon="4.75676">
        <ele>345.192</ele>
        <time>2021-02-21T12:50:26Z</time>
      </trkpt>
      <trkpt lat="49.87594" lon="4.75669">
        <ele>343.52</ele>
        <time>2021-02-21T12:50:30Z</time>
      </trkpt>
      <trkpt lat="49.87595" lon="4.75662">
        <ele>342.511</ele>
        <time>2021-02-21T12:50:34Z</time>
      </trkpt>
      <trkpt lat="49.87597" lon="4.75655">
        <ele>341.974</ele>
        <time>2021-02-21T12:50:38Z</time>
      </trkpt>
      <trkpt lat="49.87597" lon="4.75647">
        <ele>341.287</ele>
        <time>2021-02-21T12:50:42Z</time>
      </trkpt>
      <trkpt lat="49.87599" lon="4.75639">
        <ele>340.442</ele>
        <time>2021-02-21T12:50:51Z</time>
      </trkpt>
      <trkpt lat="49.87601" lon="4.75631">
        <ele>339.526</ele>
        <time>2021-02-21T12:50:56Z</time>
      </trkpt>
      <trkpt lat="49.87602" lon="4.75624">
        <ele>339.008</ele>
        <time>2021-02-21T12:51:00Z</time>
      </trkpt>
      <trkpt lat="49.87604" lon="4.75616">
        <ele>338.344</ele>
        <time>2021-02-21T12:51:05Z</time>
      </trkpt>
      <trkpt lat="49.87606" lon="4.75608">
        <ele>337.134</ele>
        <time>2021-02-21T12:51:09Z</time>
      </trkpt>
      <trkpt lat="49.87609" lon="4.75601">
        <ele>336.48</ele>
        <time>2021-02-21T12:51:13Z</time>
      </trkpt>
      <trkpt lat="49.8761" lon="4.75594">
        <ele>336.047</ele>
        <time>2021-02-21T12:51:17Z</time>
      </trkpt>
      <trkpt lat="49.87612" lon="4.75587">
        <ele>335.395</ele>
        <time>2021-02-21T12:51:21Z</time>
      </trkpt>
      <trkpt lat="49.87614" lon="4.7558">
        <ele>334.593</ele>
        <time>2021-02-21T12:51:25Z</time>
      </trkpt>
      <trkpt lat="49.87617" lon="4.75573">
        <ele>334.074</ele>
        <time>2021-02-21T12:51:29Z</time>
      </trkpt>
      <trkpt lat="49.8762" lon="4.75566">
        <ele>333.397</ele>
        <time>2021-02-21T12:51:33Z</time>
      </trkpt>
      <trkpt lat="49.87622" lon="4.75559">
        <ele>333.351</ele>
        <time>2021-02-21T12:51:37Z</time>
      </trkpt>
      <trkpt lat="49.87624" lon="4.75554">
        <ele>332.901</ele>
        <time>2021-02-21T12:51:41Z</time>
      </trkpt>
      <trkpt lat="49.87623" lon="4.75547">
        <ele>331.511</ele>
        <time>2021-02-21T12:52:08Z</time>
      </trkpt>
      <trkpt lat="49.87627" lon="4.75545">
        <ele>330.208</ele>
        <time>2021-02-21T12:52:16Z</time>
      </trkpt>
      <trkpt lat="49.87632" lon="4.75546">
        <ele>329.081</ele>
        <time>2021-02-21T12:52:20Z</time>
      </trkpt>
      <trkpt lat="49.87637" lon="4.75548">
        <ele>328.361</ele>
        <time>2021-02-21T12:52:25Z</time>
      </trkpt>
      <trkpt lat="49.87642" lon="4.75546">
        <ele>327.147</ele>
        <time>2021-02-21T12:52:31Z</time>
      </trkpt>
      <trkpt lat="49.87646" lon="4.75538">
        <ele>326.454</ele>
        <time>2021-02-21T12:52:35Z</time>
      </trkpt>
      <trkpt lat="49.87651" lon="4.75537">
        <ele>325.642</ele>
        <time>2021-02-21T12:52:39Z</time>
      </trkpt>
      <trkpt lat="49.87655" lon="4.75537">
        <ele>325.18</ele>
        <time>2021-02-21T12:52:42Z</time>
      </trkpt>
      <trkpt lat="49.8766" lon="4.75537">
        <ele>324.451</ele>
        <time>2021-02-21T12:52:46Z</time>
      </trkpt>
      <trkpt lat="49.87665" lon="4.75539">
        <ele>324.094</ele>
        <time>2021-02-21T12:52:50Z</time>
      </trkpt>
      <trkpt lat="49.87671" lon="4.7554">
        <ele>323.347</ele>
        <time>2021-02-21T12:52:54Z</time>
      </trkpt>
      <trkpt lat="49.87676" lon="4.75542">
        <ele>323.329</ele>
        <time>2021-02-21T12:53:00Z</time>
      </trkpt>
      <trkpt lat="49.87672" lon="4.75537">
        <ele>323.321</ele>
        <time>2021-02-21T12:54:54Z</time>
      </trkpt>
      <trkpt lat="49.87671" lon="4.75534">
        <ele>332.308</ele>
        <time>2021-02-21T12:55:35Z</time>
      </trkpt>
      <trkpt lat="49.8767" lon="4.75526">
        <ele>323.73</ele>
        <time>2021-02-21T13:01:15Z</time>
      </trkpt>
      <trkpt lat="49.87674" lon="4.75531">
        <ele>322.74</ele>
        <time>2021-02-21T13:02:32Z</time>
      </trkpt>
      <trkpt lat="49.87672" lon="4.75538">
        <ele>322.196</ele>
        <time>2021-02-21T13:03:16Z</time>
      </trkpt>
      <trkpt lat="49.87668" lon="4.75534">
        <ele>322.653</ele>
        <time>2021-02-21T13:04:59Z</time>
      </trkpt>
      <trkpt lat="49.87663" lon="4.75528">
        <ele>322.951</ele>
        <time>2021-02-21T13:05:04Z</time>
      </trkpt>
      <trkpt lat="49.87659" lon="4.75523">
        <ele>322.729</ele>
        <time>2021-02-21T13:05:09Z</time>
      </trkpt>
      <trkpt lat="49.87655" lon="4.75519">
        <ele>323.04</ele>
        <time>2021-02-21T13:05:13Z</time>
      </trkpt>
      <trkpt lat="49.87651" lon="4.75514">
        <ele>322.843</ele>
        <time>2021-02-21T13:05:17Z</time>
      </trkpt>
      <trkpt lat="49.87647" lon="4.75509">
        <ele>323.553</ele>
        <time>2021-02-21T13:05:21Z</time>
      </trkpt>
      <trkpt lat="49.87642" lon="4.75504">
        <ele>323.504</ele>
        <time>2021-02-21T13:05:26Z</time>
      </trkpt>
      <trkpt lat="49.87638" lon="4.75499">
        <ele>323.514</ele>
        <time>2021-02-21T13:05:30Z</time>
      </trkpt>
      <trkpt lat="49.87633" lon="4.75495">
        <ele>323.108</ele>
        <time>2021-02-21T13:05:35Z</time>
      </trkpt>
      <trkpt lat="49.87629" lon="4.75491">
        <ele>322.131</ele>
        <time>2021-02-21T13:05:40Z</time>
      </trkpt>
      <trkpt lat="49.87624" lon="4.75489">
        <ele>321.121</ele>
        <time>2021-02-21T13:05:44Z</time>
      </trkpt>
      <trkpt lat="49.87619" lon="4.75484">
        <ele>320.527</ele>
        <time>2021-02-21T13:05:49Z</time>
      </trkpt>
      <trkpt lat="49.87615" lon="4.75481">
        <ele>320.174</ele>
        <time>2021-02-21T13:05:53Z</time>
      </trkpt>
      <trkpt lat="49.8761" lon="4.75477">
        <ele>319.572</ele>
        <time>2021-02-21T13:06:20Z</time>
      </trkpt>
      <trkpt lat="49.87607" lon="4.75472">
        <ele>319.16</ele>
        <time>2021-02-21T13:06:24Z</time>
      </trkpt>
      <trkpt lat="49.87603" lon="4.75467">
        <ele>319.351</ele>
        <time>2021-02-21T13:06:28Z</time>
      </trkpt>
      <trkpt lat="49.876" lon="4.75461">
        <ele>319.024</ele>
        <time>2021-02-21T13:06:32Z</time>
      </trkpt>
      <trkpt lat="49.87595" lon="4.75455">
        <ele>318.456</ele>
        <time>2021-02-21T13:06:37Z</time>
      </trkpt>
      <trkpt lat="49.87591" lon="4.75449">
        <ele>317.759</ele>
        <time>2021-02-21T13:06:42Z</time>
      </trkpt>
      <trkpt lat="49.87589" lon="4.75441">
        <ele>317.314</ele>
        <time>2021-02-21T13:06:46Z</time>
      </trkpt>
      <trkpt lat="49.87585" lon="4.75436">
        <ele>317.008</ele>
        <time>2021-02-21T13:06:50Z</time>
      </trkpt>
      <trkpt lat="49.87582" lon="4.7543">
        <ele>316.831</ele>
        <time>2021-02-21T13:06:54Z</time>
      </trkpt>
      <trkpt lat="49.87579" lon="4.75424">
        <ele>316.761</ele>
        <time>2021-02-21T13:06:58Z</time>
      </trkpt>
      <trkpt lat="49.87576" lon="4.75417">
        <ele>317.017</ele>
        <time>2021-02-21T13:07:03Z</time>
      </trkpt>
      <trkpt lat="49.87573" lon="4.75411">
        <ele>316.864</ele>
        <time>2021-02-21T13:07:07Z</time>
      </trkpt>
      <trkpt lat="49.87571" lon="4.75404">
        <ele>316.322</ele>
        <time>2021-02-21T13:07:11Z</time>
      </trkpt>
      <trkpt lat="49.87568" lon="4.75396">
        <ele>316.08</ele>
        <time>2021-02-21T13:07:15Z</time>
      </trkpt>
      <trkpt lat="49.87565" lon="4.75388">
        <ele>315.851</ele>
        <time>2021-02-21T13:07:19Z</time>
      </trkpt>
      <trkpt lat="49.8756" lon="4.75379">
        <ele>315.334</ele>
        <time>2021-02-21T13:07:24Z</time>
      </trkpt>
      <trkpt lat="49.87557" lon="4.75373">
        <ele>315.447</ele>
        <time>2021-02-21T13:07:27Z</time>
      </trkpt>
      <trkpt lat="49.87556" lon="4.75365">
        <ele>315.529</ele>
        <time>2021-02-21T13:07:31Z</time>
      </trkpt>
      <trkpt lat="49.87554" lon="4.75358">
        <ele>315.521</ele>
        <time>2021-02-21T13:07:34Z</time>
      </trkpt>
      <trkpt lat="49.87552" lon="4.75351">
        <ele>315.908</ele>
        <time>2021-02-21T13:07:38Z</time>
      </trkpt>
      <trkpt lat="49.87551" lon="4.75343">
        <ele>315.84</ele>
        <time>2021-02-21T13:07:42Z</time>
      </trkpt>
      <trkpt lat="49.87549" lon="4.75336">
        <ele>315.77</ele>
        <time>2021-02-21T13:07:46Z</time>
      </trkpt>
      <trkpt lat="49.87545" lon="4.75331">
        <ele>315.256</ele>
        <time>2021-02-21T13:07:50Z</time>
      </trkpt>
      <trkpt lat="49.87543" lon="4.75324">
        <ele>314.943</ele>
        <time>2021-02-21T13:07:54Z</time>
      </trkpt>
      <trkpt lat="49.8754" lon="4.75318">
        <ele>314.751</ele>
        <time>2021-02-21T13:07:57Z</time>
      </trkpt>
      <trkpt lat="49.87536" lon="4.75312">
        <ele>313.869</ele>
        <time>2021-02-21T13:08:01Z</time>
      </trkpt>
      <trkpt lat="49.87532" lon="4.75306">
        <ele>313.78</ele>
        <time>2021-02-21T13:08:05Z</time>
      </trkpt>
      <trkpt lat="49.87528" lon="4.75301">
        <ele>313.693</ele>
        <time>2021-02-21T13:08:09Z</time>
      </trkpt>
      <trkpt lat="49.87523" lon="4.75294">
        <ele>313.636</ele>
        <time>2021-02-21T13:08:14Z</time>
      </trkpt>
      <trkpt lat="49.8752" lon="4.75289">
        <ele>312.817</ele>
        <time>2021-02-21T13:08:18Z</time>
      </trkpt>
      <trkpt lat="49.87517" lon="4.75283">
        <ele>312.318</ele>
        <time>2021-02-21T13:08:23Z</time>
      </trkpt>
      <trkpt lat="49.87514" lon="4.75278">
        <ele>311.208</ele>
        <time>2021-02-21T13:08:27Z</time>
      </trkpt>
      <trkpt lat="49.8751" lon="4.75274">
        <ele>310.189</ele>
        <time>2021-02-21T13:08:31Z</time>
      </trkpt>
      <trkpt lat="49.87507" lon="4.75269">
        <ele>309.579</ele>
        <time>2021-02-21T13:08:35Z</time>
      </trkpt>
      <trkpt lat="49.87503" lon="4.75264">
        <ele>308.785</ele>
        <time>2021-02-21T13:08:39Z</time>
      </trkpt>
      <trkpt lat="49.87498" lon="4.75258">
        <ele>307.812</ele>
        <time>2021-02-21T13:08:44Z</time>
      </trkpt>
      <trkpt lat="49.87494" lon="4.75253">
        <ele>307.39</ele>
        <time>2021-02-21T13:08:49Z</time>
      </trkpt>
      <trkpt lat="49.87489" lon="4.75251">
        <ele>306.668</ele>
        <time>2021-02-21T13:09:00Z</time>
      </trkpt>
      <trkpt lat="49.87484" lon="4.75247">
        <ele>306.219</ele>
        <time>2021-02-21T13:09:05Z</time>
      </trkpt>
      <trkpt lat="49.8748" lon="4.75244">
        <ele>305.962</ele>
        <time>2021-02-21T13:09:10Z</time>
      </trkpt>
      <trkpt lat="49.87476" lon="4.75239">
        <ele>305.747</ele>
        <time>2021-02-21T13:09:14Z</time>
      </trkpt>
      <trkpt lat="49.87472" lon="4.75235">
        <ele>305.629</ele>
        <time>2021-02-21T13:09:18Z</time>
      </trkpt>
      <trkpt lat="49.87467" lon="4.75232">
        <ele>305.121</ele>
        <time>2021-02-21T13:09:22Z</time>
      </trkpt>
      <trkpt lat="49.87463" lon="4.75228">
        <ele>304.808</ele>
        <time>2021-02-21T13:09:26Z</time>
      </trkpt>
      <trkpt lat="49.87458" lon="4.75223">
        <ele>304.63</ele>
        <time>2021-02-21T13:09:30Z</time>
      </trkpt>
      <trkpt lat="49.87453" lon="4.7522">
        <ele>304.16</ele>
        <time>2021-02-21T13:09:34Z</time>
      </trkpt>
      <trkpt lat="49.87451" lon="4.75214">
        <ele>303.456</ele>
        <time>2021-02-21T13:09:38Z</time>
      </trkpt>
      <trkpt lat="49.87448" lon="4.75207">
        <ele>303.473</ele>
        <time>2021-02-21T13:09:42Z</time>
      </trkpt>
      <trkpt lat="49.87445" lon="4.752">
        <ele>303.071</ele>
        <time>2021-02-21T13:10:23Z</time>
      </trkpt>
      <trkpt lat="49.87449" lon="4.75194">
        <ele>302.849</ele>
        <time>2021-02-21T13:10:44Z</time>
      </trkpt>
      <trkpt lat="49.87453" lon="4.7519">
        <ele>302.34</ele>
        <time>2021-02-21T13:10:49Z</time>
      </trkpt>
      <trkpt lat="49.87449" lon="4.75197">
        <ele>301.633</ele>
        <time>2021-02-21T13:11:09Z</time>
      </trkpt>
      <trkpt lat="49.87445" lon="4.75198">
        <ele>300.863</ele>
        <time>2021-02-21T13:11:17Z</time>
      </trkpt>
      <trkpt lat="49.8744" lon="4.75195">
        <ele>300.344</ele>
        <time>2021-02-21T13:11:46Z</time>
      </trkpt>
      <trkpt lat="49.87436" lon="4.75191">
        <ele>300.018</ele>
        <time>2021-02-21T13:11:52Z</time>
      </trkpt>
      <trkpt lat="49.87432" lon="4.75185">
        <ele>299.808</ele>
        <time>2021-02-21T13:12:01Z</time>
      </trkpt>
      <trkpt lat="49.87431" lon="4.75178">
        <ele>299.742</ele>
        <time>2021-02-21T13:12:05Z</time>
      </trkpt>
      <trkpt lat="49.8743" lon="4.75171">
        <ele>299.212</ele>
        <time>2021-02-21T13:12:15Z</time>
      </trkpt>
      <trkpt lat="49.87429" lon="4.75164">
        <ele>298.598</ele>
        <time>2021-02-21T13:12:22Z</time>
      </trkpt>
      <trkpt lat="49.87429" lon="4.75157">
        <ele>298.185</ele>
        <time>2021-02-21T13:12:28Z</time>
      </trkpt>
      <trkpt lat="49.8743" lon="4.75149">
        <ele>297.593</ele>
        <time>2021-02-21T13:12:32Z</time>
      </trkpt>
      <trkpt lat="49.87432" lon="4.75143">
        <ele>296.721</ele>
        <time>2021-02-21T13:12:40Z</time>
      </trkpt>
      <trkpt lat="49.87426" lon="4.75142">
        <ele>296.662</ele>
        <time>2021-02-21T13:13:24Z</time>
      </trkpt>
      <trkpt lat="49.87428" lon="4.75129">
        <ele>296.245</ele>
        <time>2021-02-21T13:13:29Z</time>
      </trkpt>
      <trkpt lat="49.87429" lon="4.75121">
        <ele>296.391</ele>
        <time>2021-02-21T13:13:52Z</time>
      </trkpt>
      <trkpt lat="49.8743" lon="4.75112">
        <ele>296.081</ele>
        <time>2021-02-21T13:13:59Z</time>
      </trkpt>
      <trkpt lat="49.87431" lon="4.75105">
        <ele>295.419</ele>
        <time>2021-02-21T13:14:04Z</time>
      </trkpt>
      <trkpt lat="49.8743" lon="4.75097">
        <ele>294.208</ele>
        <time>2021-02-21T13:14:09Z</time>
      </trkpt>
      <trkpt lat="49.87431" lon="4.75088">
        <ele>293.125</ele>
        <time>2021-02-21T13:14:14Z</time>
      </trkpt>
      <trkpt lat="49.87431" lon="4.7508">
        <ele>292.425</ele>
        <time>2021-02-21T13:14:18Z</time>
      </trkpt>
      <trkpt lat="49.87431" lon="4.75072">
        <ele>291.681</ele>
        <time>2021-02-21T13:14:23Z</time>
      </trkpt>
      <trkpt lat="49.87433" lon="4.75064">
        <ele>290.338</ele>
        <time>2021-02-21T13:14:46Z</time>
      </trkpt>
      <trkpt lat="49.87433" lon="4.75056">
        <ele>289.546</ele>
        <time>2021-02-21T13:14:52Z</time>
      </trkpt>
      <trkpt lat="49.87434" lon="4.75048">
        <ele>288.654</ele>
        <time>2021-02-21T13:14:57Z</time>
      </trkpt>
      <trkpt lat="49.87433" lon="4.75041">
        <ele>288.185</ele>
        <time>2021-02-21T13:15:02Z</time>
      </trkpt>
      <trkpt lat="49.87433" lon="4.75033">
        <ele>287.458</ele>
        <time>2021-02-21T13:15:06Z</time>
      </trkpt>
      <trkpt lat="49.87434" lon="4.75026">
        <ele>286.612</ele>
        <time>2021-02-21T13:15:11Z</time>
      </trkpt>
      <trkpt lat="49.87433" lon="4.75019">
        <ele>285.732</ele>
        <time>2021-02-21T13:15:17Z</time>
      </trkpt>
      <trkpt lat="49.87433" lon="4.75011">
        <ele>284.405</ele>
        <time>2021-02-21T13:15:24Z</time>
      </trkpt>
      <trkpt lat="49.87435" lon="4.75003">
        <ele>282.808</ele>
        <time>2021-02-21T13:15:32Z</time>
      </trkpt>
      <trkpt lat="49.87436" lon="4.74994">
        <ele>280.687</ele>
        <time>2021-02-21T13:15:39Z</time>
      </trkpt>
      <trkpt lat="49.87436" lon="4.74986">
        <ele>279.397</ele>
        <time>2021-02-21T13:15:43Z</time>
      </trkpt>
      <trkpt lat="49.87437" lon="4.74974">
        <ele>278.153</ele>
        <time>2021-02-21T13:15:51Z</time>
      </trkpt>
      <trkpt lat="49.87437" lon="4.74965">
        <ele>277.43</ele>
        <time>2021-02-21T13:15:57Z</time>
      </trkpt>
      <trkpt lat="49.87437" lon="4.74957">
        <ele>276.228</ele>
        <time>2021-02-21T13:16:02Z</time>
      </trkpt>
      <trkpt lat="49.87439" lon="4.74948">
        <ele>275.196</ele>
        <time>2021-02-21T13:16:07Z</time>
      </trkpt>
      <trkpt lat="49.87436" lon="4.74937">
        <ele>273.687</ele>
        <time>2021-02-21T13:16:31Z</time>
      </trkpt>
      <trkpt lat="49.87437" lon="4.7493">
        <ele>272.73</ele>
        <time>2021-02-21T13:16:35Z</time>
      </trkpt>
      <trkpt lat="49.87439" lon="4.74923">
        <ele>271.049</ele>
        <time>2021-02-21T13:16:41Z</time>
      </trkpt>
      <trkpt lat="49.8744" lon="4.74915">
        <ele>269.202</ele>
        <time>2021-02-21T13:16:46Z</time>
      </trkpt>
      <trkpt lat="49.87439" lon="4.74907">
        <ele>267.722</ele>
        <time>2021-02-21T13:16:52Z</time>
      </trkpt>
      <trkpt lat="49.87438" lon="4.74899">
        <ele>266.408</ele>
        <time>2021-02-21T13:17:02Z</time>
      </trkpt>
      <trkpt lat="49.8744" lon="4.74892">
        <ele>265.24</ele>
        <time>2021-02-21T13:17:12Z</time>
      </trkpt>
      <trkpt lat="49.8744" lon="4.7488">
        <ele>263.77</ele>
        <time>2021-02-21T13:17:24Z</time>
      </trkpt>
      <trkpt lat="49.87435" lon="4.74878">
        <ele>262.416</ele>
        <time>2021-02-21T13:17:34Z</time>
      </trkpt>
      <trkpt lat="49.87432" lon="4.74883">
        <ele>260.493</ele>
        <time>2021-02-21T13:17:55Z</time>
      </trkpt>
      <trkpt lat="49.87433" lon="4.74875">
        <ele>258.841</ele>
        <time>2021-02-21T13:18:02Z</time>
      </trkpt>
      <trkpt lat="49.87436" lon="4.7487">
        <ele>257.419</ele>
        <time>2021-02-21T13:18:09Z</time>
      </trkpt>
      <trkpt lat="49.87442" lon="4.74867">
        <ele>256.26</ele>
        <time>2021-02-21T13:19:40Z</time>
      </trkpt>
      <trkpt lat="49.87446" lon="4.74862">
        <ele>255.163</ele>
        <time>2021-02-21T13:19:49Z</time>
      </trkpt>
      <trkpt lat="49.87441" lon="4.74865">
        <ele>254.012</ele>
        <time>2021-02-21T13:20:03Z</time>
      </trkpt>
      <trkpt lat="49.87437" lon="4.74859">
        <ele>253.832</ele>
        <time>2021-02-21T13:20:20Z</time>
      </trkpt>
      <trkpt lat="49.87438" lon="4.74867">
        <ele>252.505</ele>
        <time>2021-02-21T13:21:01Z</time>
      </trkpt>
      <trkpt lat="49.8744" lon="4.74858">
        <ele>250.508</ele>
        <time>2021-02-21T13:21:50Z</time>
      </trkpt>
      <trkpt lat="49.87442" lon="4.74851">
        <ele>248.987</ele>
        <time>2021-02-21T13:21:56Z</time>
      </trkpt>
      <trkpt lat="49.87444" lon="4.74842">
        <ele>247.167</ele>
        <time>2021-02-21T13:22:05Z</time>
      </trkpt>
      <trkpt lat="49.87441" lon="4.74837">
        <ele>245.673</ele>
        <time>2021-02-21T13:22:12Z</time>
      </trkpt>
      <trkpt lat="49.87445" lon="4.74831">
        <ele>243.92</ele>
        <time>2021-02-21T13:22:19Z</time>
      </trkpt>
      <trkpt lat="49.87444" lon="4.74824">
        <ele>242.548</ele>
        <time>2021-02-21T13:22:26Z</time>
      </trkpt>
      <trkpt lat="49.87445" lon="4.74815">
        <ele>240.126</ele>
        <time>2021-02-21T13:23:05Z</time>
      </trkpt>
      <trkpt lat="49.87446" lon="4.74807">
        <ele>238.637</ele>
        <time>2021-02-21T13:23:11Z</time>
      </trkpt>
      <trkpt lat="49.87447" lon="4.74799">
        <ele>237.37</ele>
        <time>2021-02-21T13:23:17Z</time>
      </trkpt>
      <trkpt lat="49.87447" lon="4.74789">
        <ele>236.126</ele>
        <time>2021-02-21T13:23:25Z</time>
      </trkpt>
      <trkpt lat="49.87449" lon="4.74782">
        <ele>235.047</ele>
        <time>2021-02-21T13:23:30Z</time>
      </trkpt>
      <trkpt lat="49.87449" lon="4.74775">
        <ele>233.911</ele>
        <time>2021-02-21T13:23:34Z</time>
      </trkpt>
      <trkpt lat="49.87449" lon="4.74766">
        <ele>233.308</ele>
        <time>2021-02-21T13:23:39Z</time>
      </trkpt>
      <trkpt lat="49.8745" lon="4.74758">
        <ele>232.588</ele>
        <time>2021-02-21T13:23:42Z</time>
      </trkpt>
      <trkpt lat="49.87452" lon="4.74749">
        <ele>232.068</ele>
        <time>2021-02-21T13:23:51Z</time>
      </trkpt>
      <trkpt lat="49.87451" lon="4.74742">
        <ele>230.984</ele>
        <time>2021-02-21T13:24:12Z</time>
      </trkpt>
      <trkpt lat="49.8745" lon="4.74735">
        <ele>229.191</ele>
        <time>2021-02-21T13:24:17Z</time>
      </trkpt>
      <trkpt lat="49.87448" lon="4.74728">
        <ele>227.629</ele>
        <time>2021-02-21T13:24:51Z</time>
      </trkpt>
      <trkpt lat="49.87452" lon="4.74721">
        <ele>226.377</ele>
        <time>2021-02-21T13:25:32Z</time>
      </trkpt>
      <trkpt lat="49.87452" lon="4.74713">
        <ele>225.958</ele>
        <time>2021-02-21T13:25:38Z</time>
      </trkpt>
      <trkpt lat="49.87453" lon="4.74706">
        <ele>225.351</ele>
        <time>2021-02-21T13:25:42Z</time>
      </trkpt>
      <trkpt lat="49.87453" lon="4.74697">
        <ele>224.999</ele>
        <time>2021-02-21T13:25:46Z</time>
      </trkpt>
      <trkpt lat="49.87453" lon="4.74689">
        <ele>223.907</ele>
        <time>2021-02-21T13:25:53Z</time>
      </trkpt>
      <trkpt lat="49.87453" lon="4.74682">
        <ele>222.927</ele>
        <time>2021-02-21T13:25:58Z</time>
      </trkpt>
      <trkpt lat="49.87454" lon="4.74674">
        <ele>221.508</ele>
        <time>2021-02-21T13:26:02Z</time>
      </trkpt>
      <trkpt lat="49.87454" lon="4.74667">
        <ele>221.125</ele>
        <time>2021-02-21T13:26:06Z</time>
      </trkpt>
      <trkpt lat="49.87453" lon="4.74654">
        <ele>220.085</ele>
        <time>2021-02-21T13:26:15Z</time>
      </trkpt>
      <trkpt lat="49.87453" lon="4.74647">
        <ele>218.661</ele>
        <time>2021-02-21T13:26:22Z</time>
      </trkpt>
      <trkpt lat="49.87453" lon="4.74639">
        <ele>216.558</ele>
        <time>2021-02-21T13:26:28Z</time>
      </trkpt>
      <trkpt lat="49.87455" lon="4.74631">
        <ele>215.386</ele>
        <time>2021-02-21T13:26:32Z</time>
      </trkpt>
      <trkpt lat="49.87455" lon="4.74624">
        <ele>214.634</ele>
        <time>2021-02-21T13:26:36Z</time>
      </trkpt>
      <trkpt lat="49.87457" lon="4.74616">
        <ele>213.015</ele>
        <time>2021-02-21T13:26:40Z</time>
      </trkpt>
      <trkpt lat="49.8746" lon="4.7461">
        <ele>211.268</ele>
        <time>2021-02-21T13:26:44Z</time>
      </trkpt>
      <trkpt lat="49.87462" lon="4.74604">
        <ele>209.374</ele>
        <time>2021-02-21T13:26:48Z</time>
      </trkpt>
      <trkpt lat="49.87463" lon="4.74593">
        <ele>207.856</ele>
        <time>2021-02-21T13:26:54Z</time>
      </trkpt>
      <trkpt lat="49.87461" lon="4.74586">
        <ele>205.321</ele>
        <time>2021-02-21T13:27:24Z</time>
      </trkpt>
      <trkpt lat="49.87463" lon="4.74576">
        <ele>203.008</ele>
        <time>2021-02-21T13:28:00Z</time>
      </trkpt>
      <trkpt lat="49.87463" lon="4.74568">
        <ele>201.613</ele>
        <time>2021-02-21T13:28:05Z</time>
      </trkpt>
      <trkpt lat="49.8746" lon="4.74563">
        <ele>200.863</ele>
        <time>2021-02-21T13:28:09Z</time>
      </trkpt>
      <trkpt lat="49.87455" lon="4.74559">
        <ele>199.929</ele>
        <time>2021-02-21T13:28:14Z</time>
      </trkpt>
      <trkpt lat="49.87451" lon="4.74559">
        <ele>198.296</ele>
        <time>2021-02-21T13:28:20Z</time>
      </trkpt>
      <trkpt lat="49.87445" lon="4.74557">
        <ele>196.834</ele>
        <time>2021-02-21T13:28:54Z</time>
      </trkpt>
      <trkpt lat="49.87438" lon="4.74553">
        <ele>195.552</ele>
        <time>2021-02-21T13:29:08Z</time>
      </trkpt>
      <trkpt lat="49.87434" lon="4.7455">
        <ele>194.773</ele>
        <time>2021-02-21T13:29:13Z</time>
      </trkpt>
      <trkpt lat="49.87428" lon="4.74547">
        <ele>194.226</ele>
        <time>2021-02-21T13:29:20Z</time>
      </trkpt>
      <trkpt lat="49.87424" lon="4.74545">
        <ele>193.516</ele>
        <time>2021-02-21T13:29:24Z</time>
      </trkpt>
      <trkpt lat="49.87418" lon="4.74546">
        <ele>194.376</ele>
        <time>2021-02-21T13:29:27Z</time>
      </trkpt>
      <trkpt lat="49.87412" lon="4.74547">
        <ele>196.013</ele>
        <time>2021-02-21T13:29:31Z</time>
      </trkpt>
      <trkpt lat="49.87407" lon="4.74547">
        <ele>197.408</ele>
        <time>2021-02-21T13:29:35Z</time>
      </trkpt>
      <trkpt lat="49.87403" lon="4.74546">
        <ele>198.687</ele>
        <time>2021-02-21T13:29:38Z</time>
      </trkpt>
      <trkpt lat="49.87398" lon="4.74545">
        <ele>199.347</ele>
        <time>2021-02-21T13:29:49Z</time>
      </trkpt>
      <trkpt lat="49.87393" lon="4.74543">
        <ele>200.153</ele>
        <time>2021-02-21T13:29:53Z</time>
      </trkpt>
      <trkpt lat="49.87388" lon="4.74543">
        <ele>200.63</ele>
        <time>2021-02-21T13:29:57Z</time>
      </trkpt>
      <trkpt lat="49.87383" lon="4.74542">
        <ele>200.568</ele>
        <time>2021-02-21T13:30:00Z</time>
      </trkpt>
      <trkpt lat="49.87378" lon="4.74539">
        <ele>200.096</ele>
        <time>2021-02-21T13:30:07Z</time>
      </trkpt>
      <trkpt lat="49.87374" lon="4.74534">
        <ele>199.387</ele>
        <time>2021-02-21T13:30:13Z</time>
      </trkpt>
      <trkpt lat="49.87369" lon="4.74531">
        <ele>198.11</ele>
        <time>2021-02-21T13:30:18Z</time>
      </trkpt>
      <trkpt lat="49.87364" lon="4.74531">
        <ele>197.479</ele>
        <time>2021-02-21T13:30:22Z</time>
      </trkpt>
      <trkpt lat="49.87359" lon="4.74531">
        <ele>196.605</ele>
        <time>2021-02-21T13:30:26Z</time>
      </trkpt>
      <trkpt lat="49.87351" lon="4.74529">
        <ele>195.725</ele>
        <time>2021-02-21T13:30:35Z</time>
      </trkpt>
      <trkpt lat="49.87346" lon="4.74527">
        <ele>195.208</ele>
        <time>2021-02-21T13:30:39Z</time>
      </trkpt>
      <trkpt lat="49.87342" lon="4.74526">
        <ele>195.383</ele>
        <time>2021-02-21T13:30:44Z</time>
      </trkpt>
      <trkpt lat="49.87336" lon="4.74521">
        <ele>195.773</ele>
        <time>2021-02-21T13:30:50Z</time>
      </trkpt>
      <trkpt lat="49.87331" lon="4.74521">
        <ele>197.619</ele>
        <time>2021-02-21T13:31:03Z</time>
      </trkpt>
      <trkpt lat="49.87326" lon="4.74522">
        <ele>199.186</ele>
        <time>2021-02-21T13:31:07Z</time>
      </trkpt>
      <trkpt lat="49.8732" lon="4.74523">
        <ele>199.224</ele>
        <time>2021-02-21T13:31:48Z</time>
      </trkpt>
      <trkpt lat="49.87317" lon="4.74527">
        <ele>199.382</ele>
        <time>2021-02-21T13:32:10Z</time>
      </trkpt>
      <trkpt lat="49.87312" lon="4.74532">
        <ele>199.713</ele>
        <time>2021-02-21T13:32:18Z</time>
      </trkpt>
      <trkpt lat="49.87306" lon="4.74534">
        <ele>200.466</ele>
        <time>2021-02-21T13:32:24Z</time>
      </trkpt>
      <trkpt lat="49.87301" lon="4.74537">
        <ele>201.267</ele>
        <time>2021-02-21T13:32:29Z</time>
      </trkpt>
      <trkpt lat="49.87296" lon="4.74541">
        <ele>201.781</ele>
        <time>2021-02-21T13:32:33Z</time>
      </trkpt>
      <trkpt lat="49.87292" lon="4.74542">
        <ele>202.019</ele>
        <time>2021-02-21T13:32:37Z</time>
      </trkpt>
      <trkpt lat="49.87286" lon="4.74545">
        <ele>202.608</ele>
        <time>2021-02-21T13:32:43Z</time>
      </trkpt>
      <trkpt lat="49.87282" lon="4.74549">
        <ele>202.922</ele>
        <time>2021-02-21T13:32:48Z</time>
      </trkpt>
      <trkpt lat="49.87277" lon="4.74551">
        <ele>204.352</ele>
        <time>2021-02-21T13:32:54Z</time>
      </trkpt>
      <trkpt lat="49.87272" lon="4.74552">
        <ele>205.548</ele>
        <time>2021-02-21T13:32:58Z</time>
      </trkpt>
      <trkpt lat="49.87267" lon="4.74554">
        <ele>205.885</ele>
        <time>2021-02-21T13:33:03Z</time>
      </trkpt>
      <trkpt lat="49.87262" lon="4.74559">
        <ele>206.023</ele>
        <time>2021-02-21T13:33:07Z</time>
      </trkpt>
      <trkpt lat="49.87258" lon="4.74562">
        <ele>205.721</ele>
        <time>2021-02-21T13:33:14Z</time>
      </trkpt>
      <trkpt lat="49.87254" lon="4.74565">
        <ele>205.122</ele>
        <time>2021-02-21T13:33:20Z</time>
      </trkpt>
      <trkpt lat="49.87249" lon="4.74569">
        <ele>204.855</ele>
        <time>2021-02-21T13:33:24Z</time>
      </trkpt>
      <trkpt lat="49.87241" lon="4.74571">
        <ele>204.693</ele>
        <time>2021-02-21T13:33:33Z</time>
      </trkpt>
      <trkpt lat="49.87234" lon="4.74572">
        <ele>204.565</ele>
        <time>2021-02-21T13:33:40Z</time>
      </trkpt>
      <trkpt lat="49.87227" lon="4.74574">
        <ele>204.821</ele>
        <time>2021-02-21T13:33:45Z</time>
      </trkpt>
      <trkpt lat="49.87221" lon="4.74574">
        <ele>205.008</ele>
        <time>2021-02-21T13:33:49Z</time>
      </trkpt>
      <trkpt lat="49.87216" lon="4.74574">
        <ele>205.535</ele>
        <time>2021-02-21T13:33:53Z</time>
      </trkpt>
      <trkpt lat="49.87211" lon="4.74574">
        <ele>205.455</ele>
        <time>2021-02-21T13:33:57Z</time>
      </trkpt>
      <trkpt lat="49.87206" lon="4.74574">
        <ele>205.361</ele>
        <time>2021-02-21T13:34:01Z</time>
      </trkpt>
      <trkpt lat="49.872" lon="4.74576">
        <ele>205.788</ele>
        <time>2021-02-21T13:34:06Z</time>
      </trkpt>
      <trkpt lat="49.87196" lon="4.74578">
        <ele>205.996</ele>
        <time>2021-02-21T13:34:10Z</time>
      </trkpt>
      <trkpt lat="49.87189" lon="4.74582">
        <ele>206.814</ele>
        <time>2021-02-21T13:34:23Z</time>
      </trkpt>
      <trkpt lat="49.87184" lon="4.74581">
        <ele>207.465</ele>
        <time>2021-02-21T13:34:31Z</time>
      </trkpt>
      <trkpt lat="49.87179" lon="4.7458">
        <ele>207.748</ele>
        <time>2021-02-21T13:34:36Z</time>
      </trkpt>
      <trkpt lat="49.87174" lon="4.74581">
        <ele>208.794</ele>
        <time>2021-02-21T13:34:40Z</time>
      </trkpt>
      <trkpt lat="49.87169" lon="4.74584">
        <ele>208.557</ele>
        <time>2021-02-21T13:34:47Z</time>
      </trkpt>
      <trkpt lat="49.87164" lon="4.74585">
        <ele>209.622</ele>
        <time>2021-02-21T13:35:07Z</time>
      </trkpt>
      <trkpt lat="49.87159" lon="4.74584">
        <ele>211.008</ele>
        <time>2021-02-21T13:35:18Z</time>
      </trkpt>
      <trkpt lat="49.87153" lon="4.74585">
        <ele>212.785</ele>
        <time>2021-02-21T13:36:04Z</time>
      </trkpt>
      <trkpt lat="49.87148" lon="4.74586">
        <ele>213.375</ele>
        <time>2021-02-21T13:36:09Z</time>
      </trkpt>
      <trkpt lat="49.87141" lon="4.74587">
        <ele>213.321</ele>
        <time>2021-02-21T13:36:15Z</time>
      </trkpt>
      <trkpt lat="49.87135" lon="4.74586">
        <ele>214.168</ele>
        <time>2021-02-21T13:36:30Z</time>
      </trkpt>
      <trkpt lat="49.87131" lon="4.74585">
        <ele>214.226</ele>
        <time>2021-02-21T13:36:49Z</time>
      </trkpt>
      <trkpt lat="49.87128" lon="4.74579">
        <ele>212.694</ele>
        <time>2021-02-21T13:37:17Z</time>
      </trkpt>
      <trkpt lat="49.87124" lon="4.74583">
        <ele>212.115</ele>
        <time>2021-02-21T13:37:32Z</time>
      </trkpt>
      <trkpt lat="49.8712" lon="4.74581">
        <ele>213.458</ele>
        <time>2021-02-21T13:38:03Z</time>
      </trkpt>
      <trkpt lat="49.87115" lon="4.7458">
        <ele>214.299</ele>
        <time>2021-02-21T13:38:06Z</time>
      </trkpt>
      <trkpt lat="49.8711" lon="4.74576">
        <ele>214.707</ele>
        <time>2021-02-21T13:38:15Z</time>
      </trkpt>
      <trkpt lat="49.87105" lon="4.74576">
        <ele>216.227</ele>
        <time>2021-02-21T13:38:25Z</time>
      </trkpt>
      <trkpt lat="49.871" lon="4.74577">
        <ele>217.508</ele>
        <time>2021-02-21T13:38:36Z</time>
      </trkpt>
      <trkpt lat="49.87094" lon="4.74575">
        <ele>217.945</ele>
        <time>2021-02-21T13:38:43Z</time>
      </trkpt>
      <trkpt lat="49.87089" lon="4.74571">
        <ele>219.375</ele>
        <time>2021-02-21T13:38:50Z</time>
      </trkpt>
      <trkpt lat="49.87084" lon="4.7457">
        <ele>220.231</ele>
        <time>2021-02-21T13:38:54Z</time>
      </trkpt>
      <trkpt lat="49.8708" lon="4.74568">
        <ele>220.718</ele>
        <time>2021-02-21T13:39:01Z</time>
      </trkpt>
      <trkpt lat="49.87075" lon="4.74567">
        <ele>221.486</ele>
        <time>2021-02-21T13:39:17Z</time>
      </trkpt>
      <trkpt lat="49.87071" lon="4.74567">
        <ele>221.844</ele>
        <time>2021-02-21T13:39:21Z</time>
      </trkpt>
      <trkpt lat="49.87065" lon="4.74568">
        <ele>222.575</ele>
        <time>2021-02-21T13:39:31Z</time>
      </trkpt>
      <trkpt lat="49.8706" lon="4.74571">
        <ele>223.788</ele>
        <time>2021-02-21T13:39:39Z</time>
      </trkpt>
      <trkpt lat="49.87056" lon="4.74567">
        <ele>225.237</ele>
        <time>2021-02-21T13:39:47Z</time>
      </trkpt>
      <trkpt lat="49.87051" lon="4.74567">
        <ele>225.749</ele>
        <time>2021-02-21T13:39:53Z</time>
      </trkpt>
      <trkpt lat="49.87047" lon="4.74564">
        <ele>226.413</ele>
        <time>2021-02-21T13:39:58Z</time>
      </trkpt>
      <trkpt lat="49.87042" lon="4.74563">
        <ele>227.208</ele>
        <time>2021-02-21T13:40:15Z</time>
      </trkpt>
      <trkpt lat="49.87037" lon="4.74565">
        <ele>227.739</ele>
        <time>2021-02-21T13:40:19Z</time>
      </trkpt>
      <trkpt lat="49.87032" lon="4.74566">
        <ele>227.679</ele>
        <time>2021-02-21T13:40:25Z</time>
      </trkpt>
      <trkpt lat="49.87026" lon="4.74564">
        <ele>227.525</ele>
        <time>2021-02-21T13:40:33Z</time>
      </trkpt>
      <trkpt lat="49.87021" lon="4.74558">
        <ele>226.372</ele>
        <time>2021-02-21T13:41:13Z</time>
      </trkpt>
      <trkpt lat="49.87017" lon="4.74558">
        <ele>225.65</ele>
        <time>2021-02-21T13:41:22Z</time>
      </trkpt>
      <trkpt lat="49.87013" lon="4.74563">
        <ele>225.678</ele>
        <time>2021-02-21T13:41:26Z</time>
      </trkpt>
      <trkpt lat="49.87008" lon="4.74564">
        <ele>225.219</ele>
        <time>2021-02-21T13:41:32Z</time>
      </trkpt>
      <trkpt lat="49.87004" lon="4.74558">
        <ele>225.312</ele>
        <time>2021-02-21T13:41:37Z</time>
      </trkpt>
      <trkpt lat="49.86999" lon="4.74557">
        <ele>225.814</ele>
        <time>2021-02-21T13:41:41Z</time>
      </trkpt>
      <trkpt lat="49.86994" lon="4.74555">
        <ele>226.154</ele>
        <time>2021-02-21T13:41:46Z</time>
      </trkpt>
      <trkpt lat="49.86989" lon="4.74555">
        <ele>226.709</ele>
        <time>2021-02-21T13:41:51Z</time>
      </trkpt>
      <trkpt lat="49.86984" lon="4.74553">
        <ele>227.008</ele>
        <time>2021-02-21T13:42:13Z</time>
      </trkpt>
      <trkpt lat="49.86979" lon="4.74553">
        <ele>227.637</ele>
        <time>2021-02-21T13:42:17Z</time>
      </trkpt>
      <trkpt lat="49.86975" lon="4.74553">
        <ele>228.467</ele>
        <time>2021-02-21T13:42:21Z</time>
      </trkpt>
      <trkpt lat="49.86969" lon="4.74553">
        <ele>228.973</ele>
        <time>2021-02-21T13:42:26Z</time>
      </trkpt>
      <trkpt lat="49.86962" lon="4.74561">
        <ele>230.42</ele>
        <time>2021-02-21T13:42:36Z</time>
      </trkpt>
      <trkpt lat="49.86957" lon="4.74566">
        <ele>233.358</ele>
        <time>2021-02-21T13:42:55Z</time>
      </trkpt>
      <trkpt lat="49.86953" lon="4.74568">
        <ele>236.646</ele>
        <time>2021-02-21T13:43:04Z</time>
      </trkpt>
      <trkpt lat="49.86948" lon="4.74569">
        <ele>239.847</ele>
        <time>2021-02-21T13:43:11Z</time>
      </trkpt>
      <trkpt lat="49.86944" lon="4.74574">
        <ele>241.77</ele>
        <time>2021-02-21T13:43:17Z</time>
      </trkpt>
      <trkpt lat="49.86939" lon="4.74574">
        <ele>242.942</ele>
        <time>2021-02-21T13:43:25Z</time>
      </trkpt>
      <trkpt lat="49.86934" lon="4.74573">
        <ele>243.622</ele>
        <time>2021-02-21T13:43:33Z</time>
      </trkpt>
      <trkpt lat="49.86928" lon="4.74572">
        <ele>244.014</ele>
        <time>2021-02-21T13:43:39Z</time>
      </trkpt>
      <trkpt lat="49.86923" lon="4.74573">
        <ele>243.808</ele>
        <time>2021-02-21T13:43:45Z</time>
      </trkpt>
      <trkpt lat="49.86918" lon="4.74573">
        <ele>243.72</ele>
        <time>2021-02-21T13:43:50Z</time>
      </trkpt>
      <trkpt lat="49.86913" lon="4.74571">
        <ele>243.69</ele>
        <time>2021-02-21T13:43:56Z</time>
      </trkpt>
      <trkpt lat="49.86908" lon="4.74566">
        <ele>243.666</ele>
        <time>2021-02-21T13:44:00Z</time>
      </trkpt>
      <trkpt lat="49.86902" lon="4.74561">
        <ele>244.483</ele>
        <time>2021-02-21T13:44:05Z</time>
      </trkpt>
      <trkpt lat="49.86897" lon="4.7456">
        <ele>244.551</ele>
        <time>2021-02-21T13:44:09Z</time>
      </trkpt>
      <trkpt lat="49.86892" lon="4.74557">
        <ele>244.969</ele>
        <time>2021-02-21T13:44:13Z</time>
      </trkpt>
      <trkpt lat="49.86887" lon="4.74553">
        <ele>244.84</ele>
        <time>2021-02-21T13:44:17Z</time>
      </trkpt>
      <trkpt lat="49.86882" lon="4.74552">
        <ele>245.173</ele>
        <time>2021-02-21T13:44:21Z</time>
      </trkpt>
      <trkpt lat="49.86877" lon="4.74551">
        <ele>244.991</ele>
        <time>2021-02-21T13:44:26Z</time>
      </trkpt>
      <trkpt lat="49.86872" lon="4.74551">
        <ele>244.481</ele>
        <time>2021-02-21T13:44:32Z</time>
      </trkpt>
      <trkpt lat="49.86868" lon="4.74552">
        <ele>244.119</ele>
        <time>2021-02-21T13:44:36Z</time>
      </trkpt>
      <trkpt lat="49.86863" lon="4.74553">
        <ele>244.708</ele>
        <time>2021-02-21T13:44:40Z</time>
      </trkpt>
      <trkpt lat="49.86857" lon="4.74554">
        <ele>245.525</ele>
        <time>2021-02-21T13:44:46Z</time>
      </trkpt>
      <trkpt lat="49.86851" lon="4.74554">
        <ele>246.075</ele>
        <time>2021-02-21T13:44:52Z</time>
      </trkpt>
      <trkpt lat="49.86846" lon="4.74555">
        <ele>246.771</ele>
        <time>2021-02-21T13:44:58Z</time>
      </trkpt>
      <trkpt lat="49.86841" lon="4.74556">
        <ele>247.188</ele>
        <time>2021-02-21T13:45:02Z</time>
      </trkpt>
      <trkpt lat="49.86836" lon="4.74559">
        <ele>247.776</ele>
        <time>2021-02-21T13:45:07Z</time>
      </trkpt>
      <trkpt lat="49.86831" lon="4.74561">
        <ele>248.584</ele>
        <time>2021-02-21T13:45:11Z</time>
      </trkpt>
      <trkpt lat="49.86827" lon="4.74563">
        <ele>249.035</ele>
        <time>2021-02-21T13:45:15Z</time>
      </trkpt>
      <trkpt lat="49.86822" lon="4.74562">
        <ele>249.368</ele>
        <time>2021-02-21T13:45:20Z</time>
      </trkpt>
      <trkpt lat="49.86817" lon="4.74565">
        <ele>249.168</ele>
        <time>2021-02-21T13:45:27Z</time>
      </trkpt>
      <trkpt lat="49.86812" lon="4.74566">
        <ele>249.442</ele>
        <time>2021-02-21T13:45:33Z</time>
      </trkpt>
      <trkpt lat="49.86807" lon="4.74569">
        <ele>249.626</ele>
        <time>2021-02-21T13:45:37Z</time>
      </trkpt>
      <trkpt lat="49.86801" lon="4.74571">
        <ele>249.308</ele>
        <time>2021-02-21T13:45:44Z</time>
      </trkpt>
      <trkpt lat="49.86795" lon="4.74573">
        <ele>248.372</ele>
        <time>2021-02-21T13:45:59Z</time>
      </trkpt>
      <trkpt lat="49.8679" lon="4.74574">
        <ele>248.132</ele>
        <time>2021-02-21T13:46:06Z</time>
      </trkpt>
      <trkpt lat="49.86784" lon="4.74578">
        <ele>247.628</ele>
        <time>2021-02-21T13:46:24Z</time>
      </trkpt>
      <trkpt lat="49.86779" lon="4.74576">
        <ele>247.765</ele>
        <time>2021-02-21T13:46:28Z</time>
      </trkpt>
      <trkpt lat="49.86775" lon="4.74576">
        <ele>247.823</ele>
        <time>2021-02-21T13:46:32Z</time>
      </trkpt>
      <trkpt lat="49.8677" lon="4.74577">
        <ele>247.841</ele>
        <time>2021-02-21T13:46:45Z</time>
      </trkpt>
      <trkpt lat="49.86765" lon="4.74576">
        <ele>247.452</ele>
        <time>2021-02-21T13:46:50Z</time>
      </trkpt>
      <trkpt lat="49.8676" lon="4.74574">
        <ele>247.685</ele>
        <time>2021-02-21T13:46:55Z</time>
      </trkpt>
      <trkpt lat="49.86755" lon="4.74573">
        <ele>247.714</ele>
        <time>2021-02-21T13:47:00Z</time>
      </trkpt>
      <trkpt lat="49.8675" lon="4.7457">
        <ele>248.254</ele>
        <time>2021-02-21T13:47:05Z</time>
      </trkpt>
      <trkpt lat="49.86746" lon="4.74566">
        <ele>248.509</ele>
        <time>2021-02-21T13:47:09Z</time>
      </trkpt>
      <trkpt lat="49.86741" lon="4.74566">
        <ele>248.708</ele>
        <time>2021-02-21T13:47:13Z</time>
      </trkpt>
      <trkpt lat="49.86735" lon="4.74567">
        <ele>249.297</ele>
        <time>2021-02-21T13:47:17Z</time>
      </trkpt>
      <trkpt lat="49.8673" lon="4.74566">
        <ele>249.587</ele>
        <time>2021-02-21T13:47:23Z</time>
      </trkpt>
      <trkpt lat="49.86724" lon="4.74565">
        <ele>249.723</ele>
        <time>2021-02-21T13:47:27Z</time>
      </trkpt>
      <trkpt lat="49.86718" lon="4.74565">
        <ele>249.87</ele>
        <time>2021-02-21T13:47:31Z</time>
      </trkpt>
      <trkpt lat="49.86713" lon="4.74565">
        <ele>250.318</ele>
        <time>2021-02-21T13:47:34Z</time>
      </trkpt>
      <trkpt lat="49.86707" lon="4.74564">
        <ele>251.066</ele>
        <time>2021-02-21T13:47:38Z</time>
      </trkpt>
      <trkpt lat="49.86702" lon="4.74562">
        <ele>251.847</ele>
        <time>2021-02-21T13:47:42Z</time>
      </trkpt>
      <trkpt lat="49.86697" lon="4.74561">
        <ele>251.95</ele>
        <time>2021-02-21T13:47:45Z</time>
      </trkpt>
      <trkpt lat="49.86693" lon="4.7456">
        <ele>252.477</ele>
        <time>2021-02-21T13:47:49Z</time>
      </trkpt>
      <trkpt lat="49.86688" lon="4.7456">
        <ele>253.561</ele>
        <time>2021-02-21T13:47:56Z</time>
      </trkpt>
      <trkpt lat="49.86684" lon="4.74557">
        <ele>254.527</ele>
        <time>2021-02-21T13:48:00Z</time>
      </trkpt>
      <trkpt lat="49.86676" lon="4.74556">
        <ele>255.508</ele>
        <time>2021-02-21T13:48:08Z</time>
      </trkpt>
      <trkpt lat="49.86671" lon="4.74555">
        <ele>256.183</ele>
        <time>2021-02-21T13:48:15Z</time>
      </trkpt>
      <trkpt lat="49.86667" lon="4.74559">
        <ele>256.123</ele>
        <time>2021-02-21T13:48:22Z</time>
      </trkpt>
      <trkpt lat="49.86663" lon="4.74562">
        <ele>256.529</ele>
        <time>2021-02-21T13:48:27Z</time>
      </trkpt>
      <trkpt lat="49.86658" lon="4.74564">
        <ele>257.966</ele>
        <time>2021-02-21T13:48:31Z</time>
      </trkpt>
      <trkpt lat="49.86653" lon="4.74566">
        <ele>260.834</ele>
        <time>2021-02-21T13:48:53Z</time>
      </trkpt>
      <trkpt lat="49.86649" lon="4.74569">
        <ele>263.342</ele>
        <time>2021-02-21T13:48:57Z</time>
      </trkpt>
      <trkpt lat="49.86644" lon="4.74572">
        <ele>265.273</ele>
        <time>2021-02-21T13:49:01Z</time>
      </trkpt>
      <trkpt lat="49.86637" lon="4.74571">
        <ele>266.766</ele>
        <time>2021-02-21T13:49:40Z</time>
      </trkpt>
      <trkpt lat="49.86633" lon="4.7457">
        <ele>266.899</ele>
        <time>2021-02-21T13:49:47Z</time>
      </trkpt>
      <trkpt lat="49.86628" lon="4.74569">
        <ele>266.907</ele>
        <time>2021-02-21T13:49:52Z</time>
      </trkpt>
      <trkpt lat="49.86621" lon="4.74566">
        <ele>266.927</ele>
        <time>2021-02-21T13:49:59Z</time>
      </trkpt>
      <trkpt lat="49.86616" lon="4.74563">
        <ele>267.308</ele>
        <time>2021-02-21T13:50:03Z</time>
      </trkpt>
      <trkpt lat="49.86612" lon="4.74557">
        <ele>267.665</ele>
        <time>2021-02-21T13:50:08Z</time>
      </trkpt>
      <trkpt lat="49.86608" lon="4.74554">
        <ele>267.015</ele>
        <time>2021-02-21T13:50:14Z</time>
      </trkpt>
      <trkpt lat="49.86603" lon="4.74552">
        <ele>267.061</ele>
        <time>2021-02-21T13:50:18Z</time>
      </trkpt>
      <trkpt lat="49.86598" lon="4.74551">
        <ele>267.498</ele>
        <time>2021-02-21T13:50:23Z</time>
      </trkpt>
      <trkpt lat="49.86593" lon="4.74551">
        <ele>267.286</ele>
        <time>2021-02-21T13:50:30Z</time>
      </trkpt>
      <trkpt lat="49.86588" lon="4.74549">
        <ele>267.134</ele>
        <time>2021-02-21T13:50:35Z</time>
      </trkpt>
      <trkpt lat="49.86582" lon="4.74549">
        <ele>267.415</ele>
        <time>2021-02-21T13:50:40Z</time>
      </trkpt>
      <trkpt lat="49.86578" lon="4.74548">
        <ele>268.048</ele>
        <time>2021-02-21T13:50:43Z</time>
      </trkpt>
      <trkpt lat="49.86573" lon="4.74547">
        <ele>268.439</ele>
        <time>2021-02-21T13:50:47Z</time>
      </trkpt>
      <trkpt lat="49.86567" lon="4.74547">
        <ele>271.001</ele>
        <time>2021-02-21T13:50:53Z</time>
      </trkpt>
      <trkpt lat="49.86562" lon="4.74547">
        <ele>272.621</ele>
        <time>2021-02-21T13:51:32Z</time>
      </trkpt>
      <trkpt lat="49.86558" lon="4.74542">
        <ele>274.708</ele>
        <time>2021-02-21T13:52:51Z</time>
      </trkpt>
      <trkpt lat="49.86558" lon="4.74535">
        <ele>275.259</ele>
        <time>2021-02-21T13:53:03Z</time>
      </trkpt>
      <trkpt lat="49.86561" lon="4.74528">
        <ele>274.769</ele>
        <time>2021-02-21T13:53:09Z</time>
      </trkpt>
      <trkpt lat="49.86562" lon="4.7452">
        <ele>274.045</ele>
        <time>2021-02-21T13:53:16Z</time>
      </trkpt>
      <trkpt lat="49.86562" lon="4.74512">
        <ele>272.862</ele>
        <time>2021-02-21T13:53:21Z</time>
      </trkpt>
      <trkpt lat="49.86563" lon="4.74505">
        <ele>272.17</ele>
        <time>2021-02-21T13:53:27Z</time>
      </trkpt>
      <trkpt lat="49.86565" lon="4.74498">
        <ele>270.998</ele>
        <time>2021-02-21T13:53:32Z</time>
      </trkpt>
      <trkpt lat="49.86565" lon="4.7449">
        <ele>269.439</ele>
        <time>2021-02-21T13:53:39Z</time>
      </trkpt>
      <trkpt lat="49.86567" lon="4.74483">
        <ele>267.392</ele>
        <time>2021-02-21T13:53:44Z</time>
      </trkpt>
      <trkpt lat="49.86569" lon="4.74476">
        <ele>265.237</ele>
        <time>2021-02-21T13:53:49Z</time>
      </trkpt>
      <trkpt lat="49.86572" lon="4.7447">
        <ele>263.249</ele>
        <time>2021-02-21T13:53:55Z</time>
      </trkpt>
      <trkpt lat="49.86574" lon="4.74463">
        <ele>261.213</ele>
        <time>2021-02-21T13:54:00Z</time>
      </trkpt>
      <trkpt lat="49.86576" lon="4.74456">
        <ele>260.408</ele>
        <time>2021-02-21T13:54:10Z</time>
      </trkpt>
      <trkpt lat="49.86572" lon="4.7446">
        <ele>258.719</ele>
        <time>2021-02-21T13:55:04Z</time>
      </trkpt>
      <trkpt lat="49.8657" lon="4.74453">
        <ele>259.399</ele>
        <time>2021-02-21T13:55:42Z</time>
      </trkpt>
      <trkpt lat="49.86566" lon="4.74447">
        <ele>258.985</ele>
        <time>2021-02-21T13:56:38Z</time>
      </trkpt>
      <trkpt lat="49.86564" lon="4.7444">
        <ele>258.252</ele>
        <time>2021-02-21T13:56:56Z</time>
      </trkpt>
      <trkpt lat="49.86561" lon="4.74435">
        <ele>257.42</ele>
        <time>2021-02-21T13:57:06Z</time>
      </trkpt>
      <trkpt lat="49.86558" lon="4.74428">
        <ele>256.988</ele>
        <time>2021-02-21T13:57:11Z</time>
      </trkpt>
      <trkpt lat="49.86557" lon="4.74422">
        <ele>255.419</ele>
        <time>2021-02-21T13:57:15Z</time>
      </trkpt>
      <trkpt lat="49.86555" lon="4.74414">
        <ele>254.162</ele>
        <time>2021-02-21T13:57:23Z</time>
      </trkpt>
      <trkpt lat="49.86552" lon="4.74408">
        <ele>254.155</ele>
        <time>2021-02-21T13:57:29Z</time>
      </trkpt>
      <trkpt lat="49.86548" lon="4.74401">
        <ele>253.307</ele>
        <time>2021-02-21T13:57:36Z</time>
      </trkpt>
      <trkpt lat="49.86544" lon="4.74397">
        <ele>253.217</ele>
        <time>2021-02-21T13:57:41Z</time>
      </trkpt>
      <trkpt lat="49.8654" lon="4.74385">
        <ele>253.208</ele>
        <time>2021-02-21T13:57:48Z</time>
      </trkpt>
      <trkpt lat="49.86538" lon="4.74379">
        <ele>253.261</ele>
        <time>2021-02-21T13:57:51Z</time>
      </trkpt>
      <trkpt lat="49.86535" lon="4.74372">
        <ele>252.871</ele>
        <time>2021-02-21T13:57:54Z</time>
      </trkpt>
      <trkpt lat="49.86534" lon="4.74365">
        <ele>252.227</ele>
        <time>2021-02-21T13:57:57Z</time>
      </trkpt>
      <trkpt lat="49.86533" lon="4.74358">
        <ele>251.044</ele>
        <time>2021-02-21T13:58:05Z</time>
      </trkpt>
      <trkpt lat="49.86529" lon="4.74353">
        <ele>249.912</ele>
        <time>2021-02-21T13:58:10Z</time>
      </trkpt>
      <trkpt lat="49.86525" lon="4.74348">
        <ele>248.86</ele>
        <time>2021-02-21T13:58:16Z</time>
      </trkpt>
      <trkpt lat="49.86521" lon="4.74343">
        <ele>247.841</ele>
        <time>2021-02-21T13:58:22Z</time>
      </trkpt>
      <trkpt lat="49.86517" lon="4.7434">
        <ele>246.064</ele>
        <time>2021-02-21T13:58:27Z</time>
      </trkpt>
      <trkpt lat="49.86513" lon="4.74335">
        <ele>244.577</ele>
        <time>2021-02-21T13:58:32Z</time>
      </trkpt>
      <trkpt lat="49.86508" lon="4.74334">
        <ele>243.261</ele>
        <time>2021-02-21T13:58:36Z</time>
      </trkpt>
      <trkpt lat="49.865" lon="4.7433">
        <ele>242.027</ele>
        <time>2021-02-21T13:58:43Z</time>
      </trkpt>
      <trkpt lat="49.86496" lon="4.74325">
        <ele>240.908</ele>
        <time>2021-02-21T13:58:47Z</time>
      </trkpt>
      <trkpt lat="49.86492" lon="4.74321">
        <ele>239.883</ele>
        <time>2021-02-21T13:58:52Z</time>
      </trkpt>
      <trkpt lat="49.86488" lon="4.74318">
        <ele>238.883</ele>
        <time>2021-02-21T13:58:56Z</time>
      </trkpt>
      <trkpt lat="49.86483" lon="4.74314">
        <ele>237.849</ele>
        <time>2021-02-21T13:59:14Z</time>
      </trkpt>
      <trkpt lat="49.86478" lon="4.74313">
        <ele>236.436</ele>
        <time>2021-02-21T13:59:18Z</time>
      </trkpt>
      <trkpt lat="49.86473" lon="4.74313">
        <ele>236.064</ele>
        <time>2021-02-21T13:59:21Z</time>
      </trkpt>
      <trkpt lat="49.86469" lon="4.74315">
        <ele>235.332</ele>
        <time>2021-02-21T13:59:25Z</time>
      </trkpt>
      <trkpt lat="49.86463" lon="4.74312">
        <ele>234.923</ele>
        <time>2021-02-21T13:59:36Z</time>
      </trkpt>
      <trkpt lat="49.86459" lon="4.74309">
        <ele>235.136</ele>
        <time>2021-02-21T13:59:53Z</time>
      </trkpt>
      <trkpt lat="49.86455" lon="4.74303">
        <ele>235.294</ele>
        <time>2021-02-21T13:59:58Z</time>
      </trkpt>
      <trkpt lat="49.86451" lon="4.74298">
        <ele>234.557</ele>
        <time>2021-02-21T14:00:02Z</time>
      </trkpt>
      <trkpt lat="49.86447" lon="4.74294">
        <ele>233.722</ele>
        <time>2021-02-21T14:00:07Z</time>
      </trkpt>
      <trkpt lat="49.86442" lon="4.74292">
        <ele>233.608</ele>
        <time>2021-02-21T14:00:13Z</time>
      </trkpt>
      <trkpt lat="49.86436" lon="4.74289">
        <ele>234.735</ele>
        <time>2021-02-21T14:00:19Z</time>
      </trkpt>
      <trkpt lat="49.86432" lon="4.74286">
        <ele>235.425</ele>
        <time>2021-02-21T14:00:28Z</time>
      </trkpt>
      <trkpt lat="49.86428" lon="4.74282">
        <ele>235.891</ele>
        <time>2021-02-21T14:00:40Z</time>
      </trkpt>
      <trkpt lat="49.86426" lon="4.74276">
        <ele>235.258</ele>
        <time>2021-02-21T14:00:45Z</time>
      </trkpt>
      <trkpt lat="49.86422" lon="4.74271">
        <ele>234.566</ele>
        <time>2021-02-21T14:00:50Z</time>
      </trkpt>
      <trkpt lat="49.86416" lon="4.74264">
        <ele>232.994</ele>
        <time>2021-02-21T14:01:10Z</time>
      </trkpt>
      <trkpt lat="49.86412" lon="4.74259">
        <ele>231.985</ele>
        <time>2021-02-21T14:01:21Z</time>
      </trkpt>
      <trkpt lat="49.86408" lon="4.74255">
        <ele>230.528</ele>
        <time>2021-02-21T14:01:27Z</time>
      </trkpt>
      <trkpt lat="49.86404" lon="4.74248">
        <ele>229.356</ele>
        <time>2021-02-21T14:01:32Z</time>
      </trkpt>
      <trkpt lat="49.86401" lon="4.74243">
        <ele>229.059</ele>
        <time>2021-02-21T14:01:37Z</time>
      </trkpt>
      <trkpt lat="49.86394" lon="4.74238">
        <ele>228.414</ele>
        <time>2021-02-21T14:01:47Z</time>
      </trkpt>
      <trkpt lat="49.86393" lon="4.7423">
        <ele>229.208</ele>
        <time>2021-02-21T14:02:21Z</time>
      </trkpt>
      <trkpt lat="49.86389" lon="4.74224">
        <ele>228.971</ele>
        <time>2021-02-21T14:02:27Z</time>
      </trkpt>
      <trkpt lat="49.86387" lon="4.74218">
        <ele>227.561</ele>
        <time>2021-02-21T14:02:31Z</time>
      </trkpt>
      <trkpt lat="49.86384" lon="4.74211">
        <ele>225.977</ele>
        <time>2021-02-21T14:02:35Z</time>
      </trkpt>
      <trkpt lat="49.86378" lon="4.74205">
        <ele>223.714</ele>
        <time>2021-02-21T14:02:43Z</time>
      </trkpt>
      <trkpt lat="49.86374" lon="4.74199">
        <ele>222.032</ele>
        <time>2021-02-21T14:02:47Z</time>
      </trkpt>
      <trkpt lat="49.8637" lon="4.74193">
        <ele>220.22</ele>
        <time>2021-02-21T14:02:54Z</time>
      </trkpt>
      <trkpt lat="49.86366" lon="4.74188">
        <ele>219.141</ele>
        <time>2021-02-21T14:02:59Z</time>
      </trkpt>
      <trkpt lat="49.86362" lon="4.74184">
        <ele>218.414</ele>
        <time>2021-02-21T14:03:03Z</time>
      </trkpt>
      <trkpt lat="49.86357" lon="4.74181">
        <ele>218.458</ele>
        <time>2021-02-21T14:03:07Z</time>
      </trkpt>
      <trkpt lat="49.86352" lon="4.74176">
        <ele>218.052</ele>
        <time>2021-02-21T14:03:11Z</time>
      </trkpt>
      <trkpt lat="49.86346" lon="4.74172">
        <ele>217.817</ele>
        <time>2021-02-21T14:03:18Z</time>
      </trkpt>
      <trkpt lat="49.86342" lon="4.74172">
        <ele>217.308</ele>
        <time>2021-02-21T14:03:25Z</time>
      </trkpt>
      <trkpt lat="49.86336" lon="4.74166">
        <ele>215.411</ele>
        <time>2021-02-21T14:03:52Z</time>
      </trkpt>
      <trkpt lat="49.86333" lon="4.74162">
        <ele>213.861</ele>
        <time>2021-02-21T14:03:57Z</time>
      </trkpt>
      <trkpt lat="49.86329" lon="4.74154">
        <ele>212.967</ele>
        <time>2021-02-21T14:04:02Z</time>
      </trkpt>
      <trkpt lat="49.86326" lon="4.74147">
        <ele>212.784</ele>
        <time>2021-02-21T14:04:07Z</time>
      </trkpt>
      <trkpt lat="49.86323" lon="4.74141">
        <ele>212.622</ele>
        <time>2021-02-21T14:04:11Z</time>
      </trkpt>
      <trkpt lat="49.8632" lon="4.74135">
        <ele>212.58</ele>
        <time>2021-02-21T14:04:16Z</time>
      </trkpt>
      <trkpt lat="49.86316" lon="4.7413">
        <ele>211.711</ele>
        <time>2021-02-21T14:04:22Z</time>
      </trkpt>
      <trkpt lat="49.86311" lon="4.74126">
        <ele>210.874</ele>
        <time>2021-02-21T14:04:26Z</time>
      </trkpt>
      <trkpt lat="49.86307" lon="4.74123">
        <ele>209.575</ele>
        <time>2021-02-21T14:04:31Z</time>
      </trkpt>
      <trkpt lat="49.86302" lon="4.74121">
        <ele>206.728</ele>
        <time>2021-02-21T14:04:48Z</time>
      </trkpt>
      <trkpt lat="49.86297" lon="4.74118">
        <ele>205.02</ele>
        <time>2021-02-21T14:04:52Z</time>
      </trkpt>
      <trkpt lat="49.86293" lon="4.74112">
        <ele>204.008</ele>
        <time>2021-02-21T14:04:56Z</time>
      </trkpt>
      <trkpt lat="49.8629" lon="4.74105">
        <ele>202.643</ele>
        <time>2021-02-21T14:05:01Z</time>
      </trkpt>
      <trkpt lat="49.86285" lon="4.74096">
        <ele>202.293</ele>
        <time>2021-02-21T14:05:09Z</time>
      </trkpt>
      <trkpt lat="49.86281" lon="4.7409">
        <ele>201.929</ele>
        <time>2021-02-21T14:05:13Z</time>
      </trkpt>
      <trkpt lat="49.86277" lon="4.74084">
        <ele>201.326</ele>
        <time>2021-02-21T14:05:18Z</time>
      </trkpt>
      <trkpt lat="49.86272" lon="4.74075">
        <ele>201.074</ele>
        <time>2021-02-21T14:05:25Z</time>
      </trkpt>
      <trkpt lat="49.86268" lon="4.74071">
        <ele>201.292</ele>
        <time>2021-02-21T14:05:42Z</time>
      </trkpt>
      <trkpt lat="49.86263" lon="4.74074">
        <ele>204.173</ele>
        <time>2021-02-21T14:06:53Z</time>
      </trkpt>
      <trkpt lat="49.86263" lon="4.74065">
        <ele>203.996</ele>
        <time>2021-02-21T14:07:06Z</time>
      </trkpt>
      <trkpt lat="49.86262" lon="4.74058">
        <ele>205.088</ele>
        <time>2021-02-21T14:07:19Z</time>
      </trkpt>
      <trkpt lat="49.86259" lon="4.74051">
        <ele>205.624</ele>
        <time>2021-02-21T14:07:26Z</time>
      </trkpt>
      <trkpt lat="49.86254" lon="4.74048">
        <ele>206.026</ele>
        <time>2021-02-21T14:07:31Z</time>
      </trkpt>
      <trkpt lat="49.86254" lon="4.7404">
        <ele>204.608</ele>
        <time>2021-02-21T14:08:30Z</time>
      </trkpt>
      <trkpt lat="49.86249" lon="4.74041">
        <ele>204.614</ele>
        <time>2021-02-21T14:09:18Z</time>
      </trkpt>
      <trkpt lat="49.86254" lon="4.74041">
        <ele>204.634</ele>
        <time>2021-02-21T14:09:53Z</time>
      </trkpt>
      <trkpt lat="49.86259" lon="4.74046">
        <ele>207.08</ele>
        <time>2021-02-21T14:11:02Z</time>
      </trkpt>
      <trkpt lat="49.86255" lon="4.74041">
        <ele>210.017</ele>
        <time>2021-02-21T14:12:22Z</time>
      </trkpt>
      <trkpt lat="49.86259" lon="4.74037">
        <ele>211.825</ele>
        <time>2021-02-21T14:16:44Z</time>
      </trkpt>
      <trkpt lat="49.86263" lon="4.74041">
        <ele>208.993</ele>
        <time>2021-02-21T14:17:48Z</time>
      </trkpt>
      <trkpt lat="49.86263" lon="4.74034">
        <ele>208.064</ele>
        <time>2021-02-21T14:18:34Z</time>
      </trkpt>
      <trkpt lat="49.86259" lon="4.74036">
        <ele>205.877</ele>
        <time>2021-02-21T14:25:55Z</time>
      </trkpt>
      <trkpt lat="49.86263" lon="4.74034">
        <ele>205.374</ele>
        <time>2021-02-21T14:26:30Z</time>
      </trkpt>
      <trkpt lat="49.86259" lon="4.74032">
        <ele>203.456</ele>
        <time>2021-02-21T14:28:07Z</time>
      </trkpt>
      <trkpt lat="49.86264" lon="4.74031">
        <ele>201.921</ele>
        <time>2021-02-21T14:32:02Z</time>
      </trkpt>
      <trkpt lat="49.86268" lon="4.74032">
        <ele>202.608</ele>
        <time>2021-02-21T14:34:33Z</time>
      </trkpt>
      <trkpt lat="49.86264" lon="4.74031">
        <ele>201.093</ele>
        <time>2021-02-21T14:35:24Z</time>
      </trkpt>
      <trkpt lat="49.86259" lon="4.74034">
        <ele>199.633</ele>
        <time>2021-02-21T14:39:58Z</time>
      </trkpt>
      <trkpt lat="49.86254" lon="4.74036">
        <ele>198.429</ele>
        <time>2021-02-21T14:40:04Z</time>
      </trkpt>
      <trkpt lat="49.86256" lon="4.74043">
        <ele>197.366</ele>
        <time>2021-02-21T14:40:10Z</time>
      </trkpt>
      <trkpt lat="49.8625" lon="4.74042">
        <ele>196.634</ele>
        <time>2021-02-21T14:40:31Z</time>
      </trkpt>
      <trkpt lat="49.86244" lon="4.74042">
        <ele>196.242</ele>
        <time>2021-02-21T14:40:36Z</time>
      </trkpt>
      <trkpt lat="49.8624" lon="4.7404">
        <ele>196.433</ele>
        <time>2021-02-21T14:40:43Z</time>
      </trkpt>
      <trkpt lat="49.86235" lon="4.74037">
        <ele>196.146</ele>
        <time>2021-02-21T14:40:49Z</time>
      </trkpt>
      <trkpt lat="49.8623" lon="4.74038">
        <ele>195.113</ele>
        <time>2021-02-21T14:40:55Z</time>
      </trkpt>
      <trkpt lat="49.86225" lon="4.74039">
        <ele>194.943</ele>
        <time>2021-02-21T14:41:00Z</time>
      </trkpt>
      <trkpt lat="49.86221" lon="4.74039">
        <ele>194.807</ele>
        <time>2021-02-21T14:41:06Z</time>
      </trkpt>
      <trkpt lat="49.86216" lon="4.74037">
        <ele>193.908</ele>
        <time>2021-02-21T14:41:12Z</time>
      </trkpt>
      <trkpt lat="49.86212" lon="4.74034">
        <ele>193.027</ele>
        <time>2021-02-21T14:41:16Z</time>
      </trkpt>
      <trkpt lat="49.86207" lon="4.74029">
        <ele>192.487</ele>
        <time>2021-02-21T14:41:22Z</time>
      </trkpt>
      <trkpt lat="49.86203" lon="4.74028">
        <ele>192.123</ele>
        <time>2021-02-21T14:41:25Z</time>
      </trkpt>
      <trkpt lat="49.86198" lon="4.74026">
        <ele>191.58</ele>
        <time>2021-02-21T14:41:29Z</time>
      </trkpt>
      <trkpt lat="49.86193" lon="4.74025">
        <ele>190.388</ele>
        <time>2021-02-21T14:41:34Z</time>
      </trkpt>
      <trkpt lat="49.86188" lon="4.74024">
        <ele>189.226</ele>
        <time>2021-02-21T14:41:38Z</time>
      </trkpt>
      <trkpt lat="49.86184" lon="4.7402">
        <ele>187.717</ele>
        <time>2021-02-21T14:41:42Z</time>
      </trkpt>
      <trkpt lat="49.8618" lon="4.74017">
        <ele>186.43</ele>
        <time>2021-02-21T14:41:45Z</time>
      </trkpt>
      <trkpt lat="49.86175" lon="4.74015">
        <ele>185.295</ele>
        <time>2021-02-21T14:41:50Z</time>
      </trkpt>
      <trkpt lat="49.8617" lon="4.74011">
        <ele>184.149</ele>
        <time>2021-02-21T14:41:55Z</time>
      </trkpt>
      <trkpt lat="49.86166" lon="4.74007">
        <ele>183.023</ele>
        <time>2021-02-21T14:42:01Z</time>
      </trkpt>
      <trkpt lat="49.86161" lon="4.74005">
        <ele>182.408</ele>
        <time>2021-02-21T14:42:05Z</time>
      </trkpt>
      <trkpt lat="49.86156" lon="4.74004">
        <ele>181.615</ele>
        <time>2021-02-21T14:42:09Z</time>
      </trkpt>
      <trkpt lat="49.8615" lon="4.74003">
        <ele>180.735</ele>
        <time>2021-02-21T14:42:13Z</time>
      </trkpt>
      <trkpt lat="49.86146" lon="4.73999">
        <ele>179.831</ele>
        <time>2021-02-21T14:42:17Z</time>
      </trkpt>
      <trkpt lat="49.86141" lon="4.73996">
        <ele>178.868</ele>
        <time>2021-02-21T14:42:20Z</time>
      </trkpt>
      <trkpt lat="49.86137" lon="4.73993">
        <ele>178.656</ele>
        <time>2021-02-21T14:42:23Z</time>
      </trkpt>
      <trkpt lat="49.86133" lon="4.7399">
        <ele>178.164</ele>
        <time>2021-02-21T14:42:27Z</time>
      </trkpt>
      <trkpt lat="49.8613" lon="4.73983">
        <ele>177.065</ele>
        <time>2021-02-21T14:42:36Z</time>
      </trkpt>
      <trkpt lat="49.86126" lon="4.73979">
        <ele>176.338</ele>
        <time>2021-02-21T14:42:41Z</time>
      </trkpt>
      <trkpt lat="49.86122" lon="4.73974">
        <ele>176.367</ele>
        <time>2021-02-21T14:42:45Z</time>
      </trkpt>
      <trkpt lat="49.86117" lon="4.7397">
        <ele>176.381</ele>
        <time>2021-02-21T14:42:48Z</time>
      </trkpt>
      <trkpt lat="49.86113" lon="4.73966">
        <ele>176.719</ele>
        <time>2021-02-21T14:42:53Z</time>
      </trkpt>
      <trkpt lat="49.86108" lon="4.73963">
        <ele>177.708</ele>
        <time>2021-02-21T14:43:04Z</time>
      </trkpt>
      <trkpt lat="49.86104" lon="4.73957">
        <ele>177.962</ele>
        <time>2021-02-21T14:43:08Z</time>
      </trkpt>
      <trkpt lat="49.86097" lon="4.73952">
        <ele>178.432</ele>
        <time>2021-02-21T14:43:13Z</time>
      </trkpt>
      <trkpt lat="49.86091" lon="4.73951">
        <ele>178.388</ele>
        <time>2021-02-21T14:43:17Z</time>
      </trkpt>
      <trkpt lat="49.86087" lon="4.73947">
        <ele>178.755</ele>
        <time>2021-02-21T14:43:21Z</time>
      </trkpt>
      <trkpt lat="49.86082" lon="4.73944">
        <ele>178.523</ele>
        <time>2021-02-21T14:43:26Z</time>
      </trkpt>
      <trkpt lat="49.86077" lon="4.73942">
        <ele>178.021</ele>
        <time>2021-02-21T14:43:57Z</time>
      </trkpt>
      <trkpt lat="49.86073" lon="4.73943">
        <ele>176.912</ele>
        <time>2021-02-21T14:44:15Z</time>
      </trkpt>
      <trkpt lat="49.86068" lon="4.73945">
        <ele>176.635</ele>
        <time>2021-02-21T14:44:31Z</time>
      </trkpt>
      <trkpt lat="49.86063" lon="4.73943">
        <ele>176.467</ele>
        <time>2021-02-21T14:50:15Z</time>
      </trkpt>
      <trkpt lat="49.86068" lon="4.73945">
        <ele>179.981</ele>
        <time>2021-02-21T14:52:49Z</time>
      </trkpt>
      <trkpt lat="49.86068" lon="4.73952">
        <ele>180.819</ele>
        <time>2021-02-21T14:57:57Z</time>
      </trkpt>
    </trkseg>
  </trk>
</gpx>